Time,TemperatureF,DewpointF,PressureIn,WindDirection,WindDirectionDegrees,WindSpeedMPH,WindSpeedGustMPH,Humidity,HourlyPrecipIn,Conditions,Clouds,dailyrainin,SoftwareType,DateUTC
2013-06-02 00:00:00,66.6,65.4,29.86,SSW,202,0.0,3.0,96,0.02,,---,0.00,VWS V14.01,2013-06-02 05:00:00,
2013-06-02 00:02:00,66.5,65.3,29.86,SSW,202,0.0,1.0,96,0.01,,---,0.00,VWS V14.01,2013-06-02 05:02:00,
2013-06-02 00:03:00,66.5,65.3,29.86,SSW,202,0.0,1.0,96,0.01,,---,0.00,VWS V14.01,2013-06-02 05:03:00,
2013-06-02 00:04:00,66.5,65.3,29.86,SSW,202,0.0,1.0,96,0.01,,---,0.00,VWS V14.01,2013-06-02 05:04:00,
2013-06-02 00:07:00,66.4,65.2,29.86,SSW,202,0.0,1.0,96,0.01,,---,0.00,VWS V14.01,2013-06-02 05:07:00,
2013-06-02 00:08:00,66.3,65.1,29.86,SSW,202,0.0,1.0,96,0.01,,---,0.00,VWS V14.01,2013-06-02 05:08:00,
2013-06-02 00:09:00,66.3,65.1,29.86,SSW,202,0.0,1.0,96,0.01,,---,0.00,VWS V14.01,2013-06-02 05:09:00,
2013-06-02 00:13:00,66.1,64.9,29.86,SSW,202,0.0,2.0,96,0.01,,---,0.00,VWS V14.01,2013-06-02 05:13:00,
2013-06-02 00:14:00,66.1,64.9,29.86,SSW,202,0.0,2.0,96,0.01,,---,0.00,VWS V14.01,2013-06-02 05:14:00,
2013-06-02 00:15:00,66.1,64.9,29.86,SSW,202,0.0,2.0,96,0.01,,---,0.00,VWS V14.01,2013-06-02 05:15:00,
2013-06-02 00:18:00,66.0,64.8,29.86,SSW,202,0.0,2.0,96,0.02,,---,0.01,VWS V14.01,2013-06-02 05:18:00,
2013-06-02 00:19:00,65.9,64.7,29.86,SSW,202,0.0,2.0,96,0.02,,---,0.01,VWS V14.01,2013-06-02 05:19:00,
2013-06-02 00:20:00,65.9,64.7,29.86,SSW,202,0.0,2.0,96,0.02,,---,0.01,VWS V14.01,2013-06-02 05:20:00,
2013-06-02 00:23:00,65.8,64.6,29.86,SSW,202,0.0,2.0,96,0.02,,---,0.01,VWS V14.01,2013-06-02 05:23:00,
2013-06-02 00:24:00,65.8,64.6,29.86,SSW,202,0.0,2.0,96,0.02,,---,0.01,VWS V14.01,2013-06-02 05:24:00,
2013-06-02 00:25:00,65.8,64.6,29.86,SSW,202,0.0,2.0,96,0.02,,---,0.01,VWS V14.01,2013-06-02 05:25:00,
2013-06-02 00:29:00,65.7,64.5,29.86,SSW,202,0.0,0.0,96,0.01,,---,0.01,VWS V14.01,2013-06-02 05:29:00,
2013-06-02 00:30:00,65.7,64.5,29.86,SSW,202,0.0,2.0,96,0.02,,---,0.01,VWS V14.01,2013-06-02 05:30:00,
2013-06-02 00:31:00,65.6,64.4,29.86,SSW,202,0.0,0.0,96,0.01,,---,0.01,VWS V14.01,2013-06-02 05:31:00,
2013-06-02 00:34:00,65.6,64.4,29.86,SSW,202,0.0,0.0,96,0.01,,---,0.01,VWS V14.01,2013-06-02 05:34:00,
2013-06-02 00:35:00,65.6,64.4,29.86,SSW,202,0.0,0.0,96,0.01,,---,0.01,VWS V14.01,2013-06-02 05:35:00,
2013-06-02 00:36:00,65.6,64.4,29.86,SSW,202,0.0,0.0,96,0.01,,---,0.01,VWS V14.01,2013-06-02 05:36:00,
2013-06-02 00:39:00,65.5,64.3,29.86,SSW,202,0.0,0.0,96,0.01,,---,0.01,VWS V14.01,2013-06-02 05:39:00,
2013-06-02 00:40:00,65.5,64.3,29.86,SSW,202,0.0,0.0,96,0.01,,---,0.01,VWS V14.01,2013-06-02 05:40:00,
2013-06-02 00:41:00,65.5,64.3,29.86,SSW,202,0.0,0.0,96,0.01,,---,0.01,VWS V14.01,2013-06-02 05:41:00,
2013-06-02 00:44:00,65.4,64.2,29.85,SSW,202,0.0,0.0,96,0.01,,---,0.01,VWS V14.01,2013-06-02 05:44:00,
2013-06-02 00:45:00,65.4,64.2,29.85,SSW,202,0.0,0.0,96,0.01,,---,0.01,VWS V14.01,2013-06-02 05:45:00,
2013-06-02 00:46:00,65.4,64.2,29.86,SSW,202,0.0,0.0,96,0.01,,---,0.01,VWS V14.01,2013-06-02 05:46:00,
2013-06-02 00:47:00,65.4,64.2,29.85,SSW,202,0.0,0.0,96,0.01,,---,0.01,VWS V14.01,2013-06-02 05:47:00,
2013-06-02 00:50:00,65.3,64.1,29.86,SSW,202,0.0,0.0,96,0.01,,---,0.01,VWS V14.01,2013-06-02 05:50:00,
2013-06-02 00:51:00,65.3,64.1,29.86,SSW,202,0.0,0.0,96,0.01,,---,0.01,VWS V14.01,2013-06-02 05:51:00,
2013-06-02 00:52:00,65.3,64.1,29.86,SSW,202,0.0,0.0,96,0.01,,---,0.01,VWS V14.01,2013-06-02 05:52:00,
2013-06-02 00:55:00,65.2,64.0,29.86,SSW,202,0.0,0.0,96,0.01,,---,0.01,VWS V14.01,2013-06-02 05:55:00,
2013-06-02 00:56:00,65.2,64.0,29.86,SSW,202,0.0,0.0,96,0.01,,---,0.01,VWS V14.01,2013-06-02 05:56:00,
2013-06-02 00:57:00,65.2,64.0,29.86,SSW,202,0.0,0.0,96,0.01,,---,0.01,VWS V14.01,2013-06-02 05:57:00,
2013-06-02 01:00:00,65.1,63.9,29.86,SSW,202,0.0,0.0,96,0.01,,---,0.01,VWS V14.01,2013-06-02 06:00:00,
2013-06-02 01:01:00,65.1,63.9,29.86,SSW,202,0.0,0.0,96,0.01,,---,0.01,VWS V14.01,2013-06-02 06:01:00,
2013-06-02 01:02:00,65.0,63.8,29.86,SSW,202,0.0,0.0,96,0.01,,---,0.01,VWS V14.01,2013-06-02 06:02:00,
2013-06-02 01:05:00,64.9,63.7,29.86,SSW,202,0.0,1.0,96,0.01,,---,0.01,VWS V14.01,2013-06-02 06:05:00,
2013-06-02 01:06:00,64.9,63.7,29.86,SSW,202,0.0,1.0,96,0.02,,---,0.02,VWS V14.01,2013-06-02 06:06:00,
2013-06-02 01:07:00,64.9,63.7,29.86,SSW,202,0.0,1.0,96,0.02,,---,0.02,VWS V14.01,2013-06-02 06:07:00,
2013-06-02 01:10:00,64.9,63.7,29.86,SSW,202,0.0,1.0,96,0.02,,---,0.02,VWS V14.01,2013-06-02 06:10:00,
2013-06-02 01:11:00,64.9,63.7,29.86,SSW,202,0.0,1.0,96,0.02,,---,0.02,VWS V14.01,2013-06-02 06:11:00,
2013-06-02 01:12:00,64.9,63.7,29.86,SSW,202,0.0,1.0,96,0.02,,---,0.02,VWS V14.01,2013-06-02 06:12:00,
2013-06-02 01:13:00,64.9,63.7,29.86,SSW,202,0.0,1.0,96,0.02,,---,0.02,VWS V14.01,2013-06-02 06:13:00,
2013-06-02 01:15:00,64.9,63.7,29.87,SSW,202,0.0,1.0,96,0.02,,---,0.02,VWS V14.01,2013-06-02 06:15:00,
2013-06-02 01:16:00,64.9,63.7,29.86,SSW,202,0.0,1.0,96,0.02,,---,0.02,VWS V14.01,2013-06-02 06:16:00,
2013-06-02 01:17:00,64.9,63.7,29.86,SSW,202,0.0,1.0,96,0.02,,---,0.02,VWS V14.01,2013-06-02 06:17:00,
2013-06-02 01:18:00,64.8,63.6,29.87,SSW,202,0.0,1.0,96,0.02,,---,0.02,VWS V14.01,2013-06-02 06:18:00,
2013-06-02 01:20:00,64.8,63.6,29.87,SSW,202,0.0,1.0,96,0.02,,---,0.02,VWS V14.01,2013-06-02 06:20:00,
2013-06-02 01:21:00,64.8,63.6,29.87,SSW,202,0.0,1.0,96,0.02,,---,0.02,VWS V14.01,2013-06-02 06:21:00,
2013-06-02 01:22:00,64.8,63.6,29.87,SSW,202,0.0,1.0,96,0.02,,---,0.02,VWS V14.01,2013-06-02 06:22:00,
2013-06-02 01:23:00,64.8,63.6,29.87,SSW,202,0.0,1.0,96,0.02,,---,0.02,VWS V14.01,2013-06-02 06:23:00,
2013-06-02 01:25:00,64.8,63.6,29.87,SSW,202,0.0,1.0,96,0.02,,---,0.02,VWS V14.01,2013-06-02 06:25:00,
2013-06-02 01:26:00,64.8,63.6,29.87,SSW,202,0.0,1.0,96,0.02,,---,0.02,VWS V14.01,2013-06-02 06:26:00,
2013-06-02 01:27:00,64.8,63.6,29.86,SSW,202,0.0,0.0,96,0.01,,---,0.02,VWS V14.01,2013-06-02 06:27:00,
2013-06-02 01:28:00,64.7,63.5,29.86,SSW,202,0.0,0.0,96,0.01,,---,0.02,VWS V14.01,2013-06-02 06:28:00,
2013-06-02 01:30:00,64.8,63.6,29.87,SSW,202,0.0,1.0,96,0.02,,---,0.02,VWS V14.01,2013-06-02 06:30:00,
2013-06-02 01:31:00,64.7,63.8,29.87,SSW,202,0.0,0.0,97,0.01,,---,0.02,VWS V14.01,2013-06-02 06:31:00,
2013-06-02 01:32:00,64.7,63.8,29.87,SSW,202,0.0,0.0,97,0.01,,---,0.02,VWS V14.01,2013-06-02 06:32:00,
2013-06-02 01:33:00,64.6,63.7,29.87,SSW,202,0.0,0.0,97,0.01,,---,0.02,VWS V14.01,2013-06-02 06:33:00,
2013-06-02 01:36:00,64.6,63.7,29.87,SSW,202,0.0,0.0,97,0.01,,---,0.02,VWS V14.01,2013-06-02 06:36:00,
2013-06-02 01:37:00,64.6,63.7,29.87,SSW,202,0.0,0.0,97,0.01,,---,0.02,VWS V14.01,2013-06-02 06:37:00,
2013-06-02 01:38:00,64.6,63.7,29.87,SSW,202,0.0,0.0,97,0.01,,---,0.02,VWS V14.01,2013-06-02 06:38:00,
2013-06-02 01:41:00,64.5,63.6,29.87,SSW,202,0.0,0.0,97,0.01,,---,0.02,VWS V14.01,2013-06-02 06:41:00,
2013-06-02 01:42:00,64.5,63.6,29.87,SSW,202,0.0,0.0,97,0.01,,---,0.02,VWS V14.01,2013-06-02 06:42:00,
2013-06-02 01:43:00,64.4,63.5,29.87,SSW,202,0.0,0.0,97,0.01,,---,0.02,VWS V14.01,2013-06-02 06:43:00,
2013-06-02 01:44:00,64.4,63.5,29.87,SSW,202,0.0,0.0,97,0.01,,---,0.02,VWS V14.01,2013-06-02 06:44:00,
2013-06-02 01:46:00,64.4,63.5,29.86,SSW,202,0.0,0.0,97,0.01,,---,0.02,VWS V14.01,2013-06-02 06:46:00,
2013-06-02 01:47:00,64.4,63.5,29.86,SSW,202,0.0,0.0,97,0.01,,---,0.02,VWS V14.01,2013-06-02 06:47:00,
2013-06-02 01:49:00,64.3,63.1,29.86,SSW,202,0.0,0.0,96,0.01,,---,0.02,VWS V14.01,2013-06-02 06:49:00,
2013-06-02 01:51:00,64.3,63.1,29.86,SSW,202,0.0,0.0,96,0.01,,---,0.02,VWS V14.01,2013-06-02 06:51:00,
2013-06-02 01:52:00,64.3,63.1,29.86,SSW,202,0.0,0.0,96,0.01,,---,0.02,VWS V14.01,2013-06-02 06:52:00,
2013-06-02 02:00:00,64.2,63.3,29.86,SSW,202,0.0,1.0,97,0.01,,---,0.02,VWS V14.01,2013-06-02 07:00:00,
2013-06-02 02:30:00,63.7,62.8,29.87,SSW,202,0.0,1.0,97,0.01,,---,0.02,VWS V14.01,2013-06-02 07:30:00,
2013-06-02 03:00:00,62.7,61.8,29.86,SSW,202,0.0,2.0,97,0.01,,---,0.03,VWS V14.01,2013-06-02 08:00:00,
2013-06-02 03:30:00,61.9,61.0,29.86,SSW,202,0.0,0.0,97,0.01,,---,0.03,VWS V14.01,2013-06-02 08:30:00,
2013-06-02 04:00:00,61.4,60.5,29.87,SSW,202,0.0,0.0,97,0.02,,---,0.04,VWS V14.01,2013-06-02 09:00:00,
2013-06-02 04:30:00,61.1,60.2,29.88,SSW,202,0.0,1.0,97,0.01,,---,0.04,VWS V14.01,2013-06-02 09:30:00,
2013-06-02 05:00:00,60.7,59.8,29.88,SSW,202,0.0,2.0,97,0.01,,---,0.04,VWS V14.01,2013-06-02 10:00:00,
2013-06-02 05:30:00,59.8,59.0,29.89,SSW,202,0.0,0.0,97,0.01,,---,0.05,VWS V14.01,2013-06-02 10:30:00,
2013-06-02 06:00:00,58.8,58.0,29.89,SSW,202,0.0,0.0,97,0.01,,---,0.05,VWS V14.01,2013-06-02 11:00:00,
2013-06-02 06:30:00,59.8,59.2,29.89,West,270,1.0,4.0,98,0.01,,---,0.05,VWS V14.01,2013-06-02 11:30:00,
2013-06-02 07:00:00,60.7,60.1,29.89,West,270,2.0,5.0,98,0.01,,---,0.06,VWS V14.01,2013-06-02 12:00:00,
2013-06-02 07:30:00,62.2,61.0,29.89,West,270,2.0,7.0,96,0.01,,---,0.06,VWS V14.01,2013-06-02 12:30:00,
2013-06-02 08:00:00,63.9,60.9,29.90,West,270,3.0,8.0,90,0.01,,---,0.06,VWS V14.01,2013-06-02 13:00:00,
2013-06-02 08:30:00,65.3,61.3,29.91,West,270,3.0,9.0,87,0.01,,---,0.07,VWS V14.01,2013-06-02 13:30:00,
2013-06-02 09:00:00,66.5,61.9,29.91,NW,315,4.0,11.0,85,0.01,,---,0.07,VWS V14.01,2013-06-02 14:00:00,
2013-06-02 09:30:00,68.7,61.9,29.91,NW,315,5.0,10.0,79,0.02,,---,0.08,VWS V14.01,2013-06-02 14:30:00,
2013-06-02 10:00:00,66.5,61.9,29.91,NW,315,4.0,11.0,85,0.01,,---,0.07,VWS V14.01,2013-06-02 15:00:00,
2013-06-02 10:17:00,69.8,63.0,29.91,NW,325,0.0,5.0,79,0.02,,---,0.09,VWS V14.01,2013-06-02 15:17:00,
2013-06-02 10:18:00,69.8,62.6,29.91,NW,325,2.0,5.0,78,0.02,,---,0.09,VWS V14.01,2013-06-02 15:18:00,
2013-06-02 10:22:00,70.1,61.8,29.91,WNW,301,4.0,13.0,75,0.02,,---,0.09,VWS V14.01,2013-06-02 15:22:00,
2013-06-02 10:23:00,70.0,61.7,29.91,WSW,249,6.0,13.0,75,0.02,,---,0.09,VWS V14.01,2013-06-02 15:23:00,
2013-06-02 10:27:00,70.5,63.7,29.91,West,279,4.0,5.0,79,0.01,,---,0.09,VWS V14.01,2013-06-02 15:27:00,
2013-06-02 10:28:00,70.5,63.7,29.91,WNW,301,4.0,5.0,79,0.01,,---,0.09,VWS V14.01,2013-06-02 15:28:00,
2013-06-02 10:30:00,70.2,63.4,29.91,NNW,335,1.0,13.0,79,0.02,,---,0.09,VWS V14.01,2013-06-02 15:30:00,
2013-06-02 10:32:00,70.4,63.2,29.91,NNW,343,3.0,10.0,78,0.01,,---,0.09,VWS V14.01,2013-06-02 15:32:00,
2013-06-02 10:33:00,70.5,63.3,29.91,North,349,5.0,10.0,78,0.01,,---,0.09,VWS V14.01,2013-06-02 15:33:00,
2013-06-02 10:38:00,70.1,62.2,29.92,NW,325,4.0,10.0,76,0.01,,---,0.09,VWS V14.01,2013-06-02 15:38:00,
2013-06-02 10:39:00,70.0,62.1,29.92,North,355,3.0,10.0,76,0.01,,---,0.09,VWS V14.01,2013-06-02 15:39:00,
2013-06-02 10:43:00,70.1,62.9,29.92,WNW,301,7.0,10.0,78,0.01,,---,0.09,VWS V14.01,2013-06-02 15:43:00,
2013-06-02 10:44:00,70.1,62.9,29.92,NNW,330,2.0,10.0,78,0.01,,---,0.09,VWS V14.01,2013-06-02 15:44:00,
2013-06-02 10:48:00,70.0,62.1,29.92,North,357,3.0,10.0,76,0.01,,---,0.09,VWS V14.01,2013-06-02 15:48:00,
2013-06-02 10:49:00,70.0,62.1,29.92,NNW,335,4.0,10.0,76,0.01,,---,0.09,VWS V14.01,2013-06-02 15:49:00,
2013-06-02 10:50:00,69.9,62.0,29.92,NNW,330,3.0,10.0,76,0.01,,---,0.09,VWS V14.01,2013-06-02 15:50:00,
2013-06-02 10:53:00,69.9,62.0,29.93,North,354,4.0,10.0,76,0.01,,---,0.09,VWS V14.01,2013-06-02 15:53:00,
2013-06-02 10:54:00,69.9,62.0,29.93,North,354,3.0,10.0,76,0.01,,---,0.09,VWS V14.01,2013-06-02 15:54:00,
2013-06-02 10:55:00,69.8,61.5,29.93,West,263,1.0,10.0,75,0.01,,---,0.09,VWS V14.01,2013-06-02 15:55:00,
2013-06-02 10:58:00,69.8,61.9,29.93,NW,306,4.0,6.0,76,0.00,,---,0.09,VWS V14.01,2013-06-02 15:58:00,
2013-06-02 10:59:00,69.8,61.9,29.92,NW,306,4.0,6.0,76,0.00,,---,0.09,VWS V14.01,2013-06-02 15:59:00,
2013-06-02 11:00:00,69.7,61.8,29.93,WNW,289,5.0,6.0,76,0.00,,---,0.09,VWS V14.01,2013-06-02 16:00:00,
2013-06-02 11:04:00,69.7,62.2,29.93,WSW,254,4.0,7.0,77,0.00,,---,0.09,VWS V14.01,2013-06-02 16:04:00,
2013-06-02 11:05:00,69.6,62.1,29.93,WSW,258,2.0,7.0,77,0.00,,---,0.09,VWS V14.01,2013-06-02 16:05:00,
2013-06-02 11:09:00,69.7,62.5,29.93,NNW,330,3.0,7.0,78,0.00,,---,0.09,VWS V14.01,2013-06-02 16:09:00,
2013-06-02 11:10:00,69.8,62.6,29.93,North,357,4.0,7.0,78,0.00,,---,0.09,VWS V14.01,2013-06-02 16:10:00,
2013-06-02 11:11:00,69.8,62.6,29.93,North,357,4.0,7.0,78,0.00,,---,0.09,VWS V14.01,2013-06-02 16:11:00,
2013-06-02 11:14:00,70.5,64.4,29.92,North,354,5.0,7.0,81,0.00,,---,0.09,VWS V14.01,2013-06-02 16:14:00,
2013-06-02 11:15:00,70.7,63.5,29.92,WNW,300,3.0,7.0,78,0.00,,---,0.09,VWS V14.01,2013-06-02 16:15:00,
2013-06-02 11:16:00,70.9,63.3,29.92,North,353,5.0,7.0,77,0.00,,---,0.09,VWS V14.01,2013-06-02 16:16:00,
2013-06-02 11:19:00,70.7,61.6,29.92,NNW,346,5.0,9.0,73,0.00,,---,0.09,VWS V14.01,2013-06-02 16:19:00,
2013-06-02 11:20:00,70.6,61.5,29.92,North,7,4.0,9.0,73,0.00,,---,0.09,VWS V14.01,2013-06-02 16:20:00,
2013-06-02 11:21:00,70.5,61.0,29.92,North,8,3.0,9.0,72,0.00,,---,0.09,VWS V14.01,2013-06-02 16:21:00,
2013-06-02 11:24:00,70.3,62.0,29.92,WNW,293,2.0,9.0,75,0.00,,---,0.09,VWS V14.01,2013-06-02 16:24:00,
2013-06-02 11:25:00,70.3,62.0,29.92,WNW,293,1.0,9.0,75,0.00,,---,0.09,VWS V14.01,2013-06-02 16:25:00,
2013-06-02 11:26:00,70.3,62.0,29.92,WSW,252,3.0,9.0,75,0.00,,---,0.09,VWS V14.01,2013-06-02 16:26:00,
2013-06-02 11:27:00,70.3,61.6,29.92,NW,304,2.0,8.0,74,0.00,,---,0.09,VWS V14.01,2013-06-02 16:27:00,
2013-06-02 11:30:00,70.2,61.2,29.92,West,267,4.0,8.0,73,0.00,,---,0.09,VWS V14.01,2013-06-02 16:30:00,
2013-06-02 11:31:00,70.2,61.5,29.92,NNW,345,4.0,8.0,74,0.00,,---,0.09,VWS V14.01,2013-06-02 16:31:00,
2013-06-02 11:32:00,70.2,61.5,29.92,North,356,1.0,8.0,74,0.00,,---,0.09,VWS V14.01,2013-06-02 16:32:00,
2013-06-02 11:35:00,70.1,61.4,29.92,WNW,297,2.0,9.0,74,0.00,,---,0.09,VWS V14.01,2013-06-02 16:35:00,
2013-06-02 11:36:00,70.1,61.8,29.92,West,263,1.0,9.0,75,0.00,,---,0.09,VWS V14.01,2013-06-02 16:36:00,
2013-06-02 11:38:00,70.0,61.7,29.92,WNW,289,4.0,9.0,75,0.00,,---,0.09,VWS V14.01,2013-06-02 16:38:00,
2013-06-02 11:40:00,70.1,62.2,29.92,NW,325,5.0,9.0,76,0.00,,---,0.09,VWS V14.01,2013-06-02 16:40:00,
2013-06-02 11:41:00,70.1,62.2,29.92,NW,321,6.0,9.0,76,0.00,,---,0.09,VWS V14.01,2013-06-02 16:41:00,
2013-06-02 11:43:00,70.4,63.2,29.92,West,281,5.0,9.0,78,0.00,,---,0.09,VWS V14.01,2013-06-02 16:43:00,
2013-06-02 11:46:00,70.7,62.8,29.92,NNW,330,5.0,9.0,76,0.00,,---,0.09,VWS V14.01,2013-06-02 16:46:00,
2013-06-02 11:48:00,71.4,63.5,29.92,NW,325,7.0,9.0,76,0.00,,---,0.09,VWS V14.01,2013-06-02 16:48:00,
2013-06-02 11:51:00,71.4,62.3,29.92,NNW,341,3.0,9.0,73,0.00,,---,0.09,VWS V14.01,2013-06-02 16:51:00,
2013-06-02 11:52:00,71.3,62.6,29.92,North,349,6.0,9.0,74,0.00,,---,0.09,VWS V14.01,2013-06-02 16:52:00,
2013-06-02 11:54:00,71.3,62.2,29.92,WNW,299,5.0,9.0,73,0.00,,---,0.09,VWS V14.01,2013-06-02 16:54:00,
2013-06-02 11:56:00,71.3,62.6,29.92,North,359,6.0,9.0,74,0.00,,---,0.09,VWS V14.01,2013-06-02 16:56:00,
2013-06-02 11:57:00,71.2,62.1,29.93,NNE,27,5.0,5.0,73,0.00,,---,0.09,VWS V14.01,2013-06-02 16:57:00,
2013-06-02 12:00:00,70.9,61.8,29.92,WNW,284,2.0,6.0,73,0.00,,---,0.09,VWS V14.01,2013-06-02 17:00:00,
2013-06-02 12:01:00,70.8,61.7,29.93,NW,318,2.0,6.0,73,0.00,,---,0.09,VWS V14.01,2013-06-02 17:01:00,
2013-06-02 12:02:00,70.8,62.1,29.92,NW,316,3.0,6.0,74,0.00,,---,0.09,VWS V14.01,2013-06-02 17:02:00,
2013-06-02 12:06:00,70.7,62.4,29.92,WNW,291,3.0,6.0,75,0.00,,---,0.09,VWS V14.01,2013-06-02 17:06:00,
2013-06-02 12:07:00,70.7,62.8,29.93,NW,325,3.0,6.0,76,0.00,,---,0.09,VWS V14.01,2013-06-02 17:07:00,
2013-06-02 12:11:00,70.6,62.3,29.92,NNW,343,4.0,6.0,75,0.01,,---,0.10,VWS V14.01,2013-06-02 17:11:00,
2013-06-02 12:12:00,70.5,61.8,29.92,NNW,330,2.0,6.0,74,0.01,,---,0.10,VWS V14.01,2013-06-02 17:12:00,
2013-06-02 12:16:00,71.1,63.2,29.92,North,10,3.0,7.0,76,0.01,,---,0.10,VWS V14.01,2013-06-02 17:16:00,
2013-06-02 12:17:00,71.1,63.2,29.92,North,10,3.0,7.0,76,0.01,,---,0.10,VWS V14.01,2013-06-02 17:17:00,
2013-06-02 12:22:00,71.5,62.0,29.92,NE,36,3.0,7.0,72,0.01,,---,0.10,VWS V14.01,2013-06-02 17:22:00,
2013-06-02 12:23:00,71.4,61.9,29.92,NE,35,2.0,7.0,72,0.01,,---,0.10,VWS V14.01,2013-06-02 17:23:00,
2013-06-02 12:27:00,71.4,62.7,29.92,NW,306,3.0,4.0,74,0.01,,---,0.10,VWS V14.01,2013-06-02 17:27:00,
2013-06-02 12:28:00,71.4,62.3,29.92,NW,325,4.0,6.0,73,0.01,,---,0.10,VWS V14.01,2013-06-02 17:28:00,
2013-06-02 12:30:00,71.4,62.7,29.92,NW,306,4.0,7.0,74,0.01,,---,0.10,VWS V14.01,2013-06-02 17:30:00,
2013-06-02 12:32:00,71.2,61.7,29.92,WNW,293,5.0,7.0,72,0.01,,---,0.10,VWS V14.01,2013-06-02 17:32:00,
2013-06-02 12:33:00,71.2,61.7,29.92,NW,316,2.0,7.0,72,0.01,,---,0.10,VWS V14.01,2013-06-02 17:33:00,
2013-06-02 12:34:00,71.2,61.7,29.92,NW,319,4.0,7.0,72,0.01,,---,0.10,VWS V14.01,2013-06-02 17:34:00,
2013-06-02 12:37:00,71.0,61.5,29.92,WNW,298,6.0,7.0,72,0.01,,---,0.10,VWS V14.01,2013-06-02 17:37:00,
2013-06-02 12:38:00,70.9,61.0,29.92,WNW,299,3.0,7.0,71,0.01,,---,0.10,VWS V14.01,2013-06-02 17:38:00,
2013-06-02 12:39:00,70.9,61.4,29.92,WNW,299,5.0,7.0,72,0.01,,---,0.10,VWS V14.01,2013-06-02 17:39:00,
2013-06-02 12:42:00,71.0,61.5,29.92,WNW,299,4.0,7.0,72,0.01,,---,0.10,VWS V14.01,2013-06-02 17:42:00,
2013-06-02 12:43:00,71.0,61.1,29.92,WNW,299,4.0,7.0,71,0.01,,---,0.10,VWS V14.01,2013-06-02 17:43:00,
2013-06-02 12:44:00,71.0,61.1,29.92,West,280,7.0,7.0,71,0.01,,---,0.10,VWS V14.01,2013-06-02 17:44:00,
2013-06-02 12:47:00,71.0,61.9,29.92,NW,320,7.0,7.0,73,0.01,,---,0.10,VWS V14.01,2013-06-02 17:47:00,
2013-06-02 12:48:00,71.0,61.9,29.92,NW,319,5.0,7.0,73,0.01,,---,0.10,VWS V14.01,2013-06-02 17:48:00,
2013-06-02 12:49:00,71.0,61.5,29.92,NW,321,4.0,7.0,72,0.01,,---,0.10,VWS V14.01,2013-06-02 17:49:00,
2013-06-02 12:53:00,71.1,62.0,29.92,NW,308,4.0,7.0,73,0.01,,---,0.10,VWS V14.01,2013-06-02 17:53:00,
2013-06-02 12:54:00,71.2,62.5,29.92,West,268,7.0,8.0,74,0.01,,---,0.10,VWS V14.01,2013-06-02 17:54:00,
2013-06-02 12:58:00,71.4,61.1,29.92,WNW,295,3.0,8.0,70,0.01,,---,0.10,VWS V14.01,2013-06-02 17:58:00,
2013-06-02 12:59:00,71.3,61.0,29.92,NW,312,6.0,9.0,70,0.01,,---,0.10,VWS V14.01,2013-06-02 17:59:00,
2013-06-02 13:00:00,71.4,60.7,29.92,WNW,292,2.0,9.0,69,0.01,,---,0.10,VWS V14.01,2013-06-02 18:00:00,
2013-06-02 13:03:00,71.4,61.1,29.93,NW,319,1.0,9.0,70,0.01,,---,0.10,VWS V14.01,2013-06-02 18:03:00,
2013-06-02 13:04:00,71.3,61.8,29.92,NW,318,2.0,9.0,72,0.01,,---,0.10,VWS V14.01,2013-06-02 18:04:00,
2013-06-02 13:05:00,71.3,61.8,29.92,NW,317,1.0,9.0,72,0.01,,---,0.10,VWS V14.01,2013-06-02 18:05:00,
2013-06-02 13:09:00,71.4,61.9,29.92,WNW,285,1.0,9.0,72,0.01,,---,0.10,VWS V14.01,2013-06-02 18:09:00,
2013-06-02 13:10:00,71.4,61.9,29.92,WNW,289,3.0,9.0,72,0.01,,---,0.10,VWS V14.01,2013-06-02 18:10:00,
2013-06-02 13:14:00,71.3,61.4,29.92,West,268,0.0,9.0,71,0.01,,---,0.10,VWS V14.01,2013-06-02 18:14:00,
2013-06-02 13:15:00,71.3,61.4,29.92,West,268,0.0,9.0,71,0.01,,---,0.10,VWS V14.01,2013-06-02 18:15:00,
2013-06-02 13:20:00,71.1,60.8,29.92,West,267,3.0,9.0,70,0.01,,---,0.10,VWS V14.01,2013-06-02 18:20:00,
2013-06-02 13:25:00,71.2,60.9,29.92,NW,317,4.0,9.0,70,0.01,,---,0.10,VWS V14.01,2013-06-02 18:25:00,
2013-06-02 13:26:00,71.2,60.9,29.92,NW,305,3.0,9.0,70,0.01,,---,0.10,VWS V14.01,2013-06-02 18:26:00,
2013-06-02 13:30:00,71.1,60.8,29.92,WSW,256,4.0,9.0,70,0.00,,---,0.10,VWS V14.01,2013-06-02 18:30:00,
2013-06-02 13:31:00,71.1,61.6,29.92,NW,313,4.0,9.0,72,0.00,,---,0.10,VWS V14.01,2013-06-02 18:31:00,
2013-06-02 13:35:00,71.1,62.0,29.92,NW,310,5.0,9.0,73,0.00,,---,0.10,VWS V14.01,2013-06-02 18:35:00,
2013-06-02 13:36:00,71.1,62.0,29.92,NW,325,5.0,9.0,73,0.00,,---,0.10,VWS V14.01,2013-06-02 18:36:00,
2013-06-02 13:40:00,71.1,61.2,29.92,NW,321,6.0,9.0,71,0.00,,---,0.10,VWS V14.01,2013-06-02 18:40:00,
2013-06-02 13:41:00,71.2,61.3,29.92,NW,325,3.0,9.0,71,0.00,,---,0.10,VWS V14.01,2013-06-02 18:41:00,
2013-06-02 13:45:00,71.6,61.7,29.92,NW,314,3.0,10.0,71,0.00,,---,0.10,VWS V14.01,2013-06-02 18:45:00,
2013-06-02 13:46:00,71.6,61.7,29.92,WNW,290,3.0,10.0,71,0.00,,---,0.10,VWS V14.01,2013-06-02 18:46:00,
2013-06-02 13:47:00,71.7,61.8,29.92,WNW,291,2.0,10.0,71,0.00,,---,0.10,VWS V14.01,2013-06-02 18:47:00,
2013-06-02 13:50:00,71.8,61.1,29.92,West,270,6.0,10.0,69,0.00,,---,0.10,VWS V14.01,2013-06-02 18:50:00,
2013-06-02 13:51:00,71.8,60.7,29.92,NW,306,3.0,10.0,68,0.00,,---,0.10,VWS V14.01,2013-06-02 18:51:00,
2013-06-02 13:52:00,71.8,61.1,29.92,NW,308,4.0,10.0,69,0.00,,---,0.10,VWS V14.01,2013-06-02 18:52:00,
2013-06-02 13:55:00,72.0,62.5,29.92,NW,308,5.0,10.0,72,0.00,,---,0.10,VWS V14.01,2013-06-02 18:55:00,
2013-06-02 13:56:00,72.1,62.2,29.92,NNW,341,3.0,10.0,71,0.00,,---,0.10,VWS V14.01,2013-06-02 18:56:00,
2013-06-02 13:57:00,72.1,61.8,29.92,NNW,347,2.0,4.0,70,0.00,,---,0.10,VWS V14.01,2013-06-02 18:57:00,
2013-06-02 14:00:00,72.2,62.3,29.92,NW,310,9.0,9.0,71,0.00,,---,0.10,VWS V14.01,2013-06-02 19:00:00,
2013-06-02 14:01:00,72.2,62.3,29.92,WNW,303,4.0,9.0,71,0.00,,---,0.10,VWS V14.01,2013-06-02 19:01:00,
2013-06-02 14:02:00,72.2,62.3,29.92,North,349,4.0,9.0,71,0.00,,---,0.10,VWS V14.01,2013-06-02 19:02:00,
2013-06-02 14:05:00,72.0,61.7,29.92,NW,318,6.0,9.0,70,0.00,,---,0.10,VWS V14.01,2013-06-02 19:05:00,
2013-06-02 14:06:00,71.9,61.6,29.92,WNW,295,3.0,9.0,70,0.00,,---,0.10,VWS V14.01,2013-06-02 19:06:00,
2013-06-02 14:07:00,71.9,60.8,29.92,WNW,295,1.0,9.0,68,0.00,,---,0.10,VWS V14.01,2013-06-02 19:07:00,
2013-06-02 14:11:00,72.1,61.8,29.92,NNW,335,4.0,9.0,70,0.00,,---,0.10,VWS V14.01,2013-06-02 19:11:00,
2013-06-02 14:12:00,72.2,62.3,29.92,NNW,330,2.0,9.0,71,0.00,,---,0.10,VWS V14.01,2013-06-02 19:12:00,
2013-06-02 14:13:00,72.4,62.5,29.91,NNW,330,7.0,9.0,71,0.00,,---,0.10,VWS V14.01,2013-06-02 19:13:00,
2013-06-02 14:16:00,73.2,62.4,29.91,NW,318,8.0,9.0,69,0.00,,---,0.10,VWS V14.01,2013-06-02 19:16:00,
2013-06-02 14:17:00,73.2,62.4,29.91,North,355,9.0,9.0,69,0.00,,---,0.10,VWS V14.01,2013-06-02 19:17:00,
2013-06-02 14:18:00,73.3,63.3,29.91,NW,320,4.0,9.0,71,0.00,,---,0.10,VWS V14.01,2013-06-02 19:18:00,
2013-06-02 14:21:00,73.2,62.8,29.92,NW,325,5.0,9.0,70,0.00,,---,0.10,VWS V14.01,2013-06-02 19:21:00,
2013-06-02 14:22:00,73.1,62.7,29.91,WNW,299,1.0,9.0,70,0.00,,---,0.10,VWS V14.01,2013-06-02 19:22:00,
2013-06-02 14:23:00,72.9,61.3,29.91,NW,318,2.0,9.0,67,0.00,,---,0.10,VWS V14.01,2013-06-02 19:23:00,
2013-06-02 14:26:00,72.8,62.0,29.91,NW,312,5.0,9.0,69,0.00,,---,0.10,VWS V14.01,2013-06-02 19:26:00,
2013-06-02 14:27:00,72.8,63.3,29.91,NW,325,5.0,7.0,72,0.00,,---,0.10,VWS V14.01,2013-06-02 19:27:00,
2013-06-02 14:28:00,72.7,62.0,29.92,North,4,5.0,7.0,69,0.00,,---,0.10,VWS V14.01,2013-06-02 19:28:00,
2013-06-02 14:30:00,72.8,63.3,29.91,NW,311,7.0,9.0,72,0.00,,---,0.10,VWS V14.01,2013-06-02 19:30:00,
2013-06-02 14:31:00,72.5,61.3,29.92,NW,316,4.0,7.0,68,0.00,,---,0.10,VWS V14.01,2013-06-02 19:31:00,
2013-06-02 14:32:00,72.5,62.2,29.91,NW,317,3.0,7.0,70,0.00,,---,0.10,VWS V14.01,2013-06-02 19:32:00,
2013-06-02 14:33:00,72.5,62.6,29.92,NW,310,7.0,8.0,71,0.00,,---,0.10,VWS V14.01,2013-06-02 19:33:00,
2013-06-02 14:36:00,72.6,61.4,29.91,NW,305,4.0,8.0,68,0.00,,---,0.10,VWS V14.01,2013-06-02 19:36:00,
2013-06-02 14:37:00,72.8,62.0,29.91,NW,318,5.0,8.0,69,0.00,,---,0.10,VWS V14.01,2013-06-02 19:37:00,
2013-06-02 14:38:00,72.9,62.5,29.91,WNW,298,4.0,11.0,70,0.00,,---,0.10,VWS V14.01,2013-06-02 19:38:00,
2013-06-02 14:39:00,72.9,62.5,29.91,NW,309,7.0,11.0,70,0.00,,---,0.10,VWS V14.01,2013-06-02 19:39:00,
2013-06-02 14:41:00,73.1,62.3,29.91,NW,305,5.0,11.0,69,0.00,,---,0.10,VWS V14.01,2013-06-02 19:41:00,
2013-06-02 14:42:00,73.0,61.4,29.91,WNW,299,4.0,11.0,67,0.00,,---,0.10,VWS V14.01,2013-06-02 19:42:00,
2013-06-02 14:43:00,73.0,62.2,29.91,WSW,256,3.0,11.0,69,0.00,,---,0.10,VWS V14.01,2013-06-02 19:43:00,
2013-06-02 14:44:00,72.9,62.1,29.91,WNW,294,4.0,11.0,69,0.00,,---,0.10,VWS V14.01,2013-06-02 19:44:00,
2013-06-02 14:46:00,72.9,61.7,29.91,WSW,252,6.0,11.0,68,0.00,,---,0.10,VWS V14.01,2013-06-02 19:46:00,
2013-06-02 14:47:00,72.9,62.1,29.91,WNW,284,3.0,11.0,69,0.00,,---,0.10,VWS V14.01,2013-06-02 19:47:00,
2013-06-02 14:48:00,72.9,63.0,29.91,NW,308,2.0,11.0,71,0.00,,---,0.10,VWS V14.01,2013-06-02 19:48:00,
2013-06-02 14:49:00,73.0,62.7,29.91,WNW,302,5.0,11.0,70,0.00,,---,0.10,VWS V14.01,2013-06-02 19:49:00,
2013-06-02 14:51:00,73.0,63.0,29.91,NW,317,4.0,11.0,71,0.00,,---,0.10,VWS V14.01,2013-06-02 19:51:00,
2013-06-02 14:53:00,73.0,62.7,29.91,NW,325,6.0,11.0,70,0.00,,---,0.10,VWS V14.01,2013-06-02 19:53:00,
2013-06-02 14:54:00,73.0,61.8,29.91,NNW,335,6.0,11.0,68,0.00,,---,0.10,VWS V14.01,2013-06-02 19:54:00,
2013-06-02 14:56:00,72.9,61.7,29.91,WSW,252,4.0,11.0,68,0.00,,---,0.10,VWS V14.01,2013-06-02 19:56:00,
2013-06-02 14:58:00,72.8,62.0,29.91,West,260,4.0,8.0,69,0.00,,---,0.10,VWS V14.01,2013-06-02 19:58:00,
2013-06-02 14:59:00,72.8,62.0,29.91,WNW,285,6.0,8.0,69,0.00,,---,0.10,VWS V14.01,2013-06-02 19:59:00,
2013-06-02 15:00:00,72.7,62.0,29.91,West,260,3.0,8.0,69,0.00,,---,0.10,VWS V14.01,2013-06-02 20:00:00,
2013-06-02 15:01:00,72.5,61.3,29.91,WNW,298,6.0,8.0,68,0.00,,---,0.10,VWS V14.01,2013-06-02 20:01:00,
2013-06-02 15:03:00,72.4,62.1,29.91,WNW,290,3.0,8.0,70,0.00,,---,0.10,VWS V14.01,2013-06-02 20:03:00,
2013-06-02 15:04:00,72.5,62.6,29.91,West,261,5.0,8.0,71,0.00,,---,0.10,VWS V14.01,2013-06-02 20:04:00,
2013-06-02 15:05:00,72.5,62.2,29.91,SW,222,3.0,8.0,70,0.00,,---,0.10,VWS V14.01,2013-06-02 20:05:00,
2013-06-02 15:06:00,72.5,62.2,29.91,West,267,3.0,8.0,70,0.00,,---,0.10,VWS V14.01,2013-06-02 20:06:00,
2013-06-02 15:09:00,72.6,62.7,29.91,WNW,302,7.0,8.0,71,0.00,,---,0.10,VWS V14.01,2013-06-02 20:09:00,
2013-06-02 15:10:00,72.7,62.4,29.91,WNW,301,1.0,8.0,70,0.00,,---,0.10,VWS V14.01,2013-06-02 20:10:00,
2013-06-02 15:12:00,72.6,61.9,29.91,WNW,302,3.0,8.0,69,0.00,,---,0.10,VWS V14.01,2013-06-02 20:12:00,
2013-06-02 15:14:00,72.6,62.7,29.91,NNW,330,5.0,8.0,71,0.00,,---,0.10,VWS V14.01,2013-06-02 20:14:00,
2013-06-02 15:15:00,72.6,62.7,29.91,WNW,296,7.0,8.0,71,0.00,,---,0.10,VWS V14.01,2013-06-02 20:15:00,
2013-06-02 15:18:00,72.4,62.9,29.91,NNW,335,4.0,9.0,72,0.00,,---,0.10,VWS V14.01,2013-06-02 20:18:00,
2013-06-02 15:19:00,72.4,63.7,29.91,NW,310,6.0,9.0,74,0.00,,---,0.10,VWS V14.01,2013-06-02 20:19:00,
2013-06-02 15:21:00,72.5,63.0,29.91,North,4,3.0,9.0,72,0.00,,---,0.10,VWS V14.01,2013-06-02 20:21:00,
2013-06-02 15:23:00,72.5,63.0,29.91,WNW,292,4.0,9.0,72,0.00,,---,0.10,VWS V14.01,2013-06-02 20:23:00,
2013-06-02 15:24:00,72.5,62.6,29.91,NW,310,7.0,9.0,71,0.00,,---,0.10,VWS V14.01,2013-06-02 20:24:00,
2013-06-02 15:26:00,72.4,62.9,29.91,NW,312,5.0,10.0,72,0.00,,---,0.10,VWS V14.01,2013-06-02 20:26:00,
2013-06-02 15:28:00,72.4,62.5,29.91,WNW,299,3.0,6.0,71,0.00,,---,0.10,VWS V14.01,2013-06-02 20:28:00,
2013-06-02 15:29:00,72.3,62.4,29.91,NNW,335,2.0,6.0,71,0.00,,---,0.10,VWS V14.01,2013-06-02 20:29:00,
2013-06-02 15:30:00,72.4,62.9,29.91,NW,325,6.0,10.0,72,0.00,,---,0.10,VWS V14.01,2013-06-02 20:30:00,
2013-06-02 15:31:00,72.1,62.2,29.91,NW,325,3.0,6.0,71,0.00,,---,0.10,VWS V14.01,2013-06-02 20:31:00,
2013-06-02 15:33:00,72.1,63.0,29.91,NW,325,1.0,6.0,73,0.00,,---,0.10,VWS V14.01,2013-06-02 20:33:00,
2013-06-02 15:34:00,72.1,62.6,29.91,NW,325,2.0,6.0,72,0.00,,---,0.10,VWS V14.01,2013-06-02 20:34:00,
2013-06-02 15:35:00,72.2,64.2,29.91,NW,325,1.0,6.0,76,0.00,,---,0.10,VWS V14.01,2013-06-02 20:35:00,
2013-06-02 15:37:00,72.4,64.4,29.91,NW,325,2.0,6.0,76,0.00,,---,0.10,VWS V14.01,2013-06-02 20:37:00,
2013-06-02 15:38:00,72.9,64.5,29.91,WSW,256,2.0,6.0,75,0.00,,---,0.10,VWS V14.01,2013-06-02 20:38:00,
2013-06-02 15:40:00,73.0,63.0,29.91,WNW,301,5.0,6.0,71,0.00,,---,0.10,VWS V14.01,2013-06-02 20:40:00,
2013-06-02 15:42:00,73.0,62.7,29.91,NW,318,4.0,10.0,70,0.00,,---,0.10,VWS V14.01,2013-06-02 20:42:00,
2013-06-02 15:43:00,72.8,62.5,29.91,West,279,8.0,10.0,70,0.00,,---,0.10,VWS V14.01,2013-06-02 20:43:00,
2013-06-02 15:45:00,72.7,62.0,29.91,WNW,296,6.0,10.0,69,0.00,,---,0.10,VWS V14.01,2013-06-02 20:45:00,
2013-06-02 15:47:00,72.5,62.6,29.91,NW,312,4.0,10.0,71,0.00,,---,0.10,VWS V14.01,2013-06-02 20:47:00,
2013-06-02 15:48:00,72.5,62.6,29.91,WNW,286,3.0,10.0,71,0.00,,---,0.10,VWS V14.01,2013-06-02 20:48:00,
2013-06-02 15:50:00,72.6,62.3,29.91,NNW,345,6.0,10.0,70,0.00,,---,0.10,VWS V14.01,2013-06-02 20:50:00,
2013-06-02 15:51:00,72.7,62.4,29.91,NW,325,6.0,10.0,70,0.00,,---,0.10,VWS V14.01,2013-06-02 20:51:00,
2013-06-02 15:52:00,72.9,63.0,29.91,NW,319,3.0,10.0,71,0.00,,---,0.10,VWS V14.01,2013-06-02 20:52:00,
2013-06-02 15:53:00,73.2,63.2,29.91,WNW,299,6.0,10.0,71,0.00,,---,0.10,VWS V14.01,2013-06-02 20:53:00,
2013-06-02 15:55:00,73.4,63.0,29.91,WNW,287,5.0,10.0,70,0.00,,---,0.10,VWS V14.01,2013-06-02 20:55:00,
2013-06-02 15:56:00,73.4,63.0,29.91,WNW,301,3.0,10.0,70,0.00,,---,0.10,VWS V14.01,2013-06-02 20:56:00,
2013-06-02 15:57:00,73.4,63.0,29.91,WNW,284,1.0,4.0,70,0.00,,---,0.10,VWS V14.01,2013-06-02 20:57:00,
2013-06-02 15:59:00,73.3,63.7,29.91,NW,321,4.0,5.0,72,0.00,,---,0.10,VWS V14.01,2013-06-02 20:59:00,
2013-06-02 16:00:00,73.2,62.8,29.91,NW,319,7.0,9.0,70,0.00,,---,0.10,VWS V14.01,2013-06-02 21:00:00,
2013-06-02 16:01:00,73.2,62.8,29.91,NW,311,4.0,9.0,70,0.00,,---,0.10,VWS V14.01,2013-06-02 21:01:00,
2013-06-02 16:02:00,73.1,62.3,29.91,North,351,3.0,9.0,69,0.00,,---,0.10,VWS V14.01,2013-06-02 21:02:00,
2013-06-02 16:04:00,73.0,62.7,29.91,WNW,285,4.0,9.0,70,0.00,,---,0.10,VWS V14.01,2013-06-02 21:04:00,
2013-06-02 16:05:00,72.9,63.0,29.91,NW,325,2.0,9.0,71,0.00,,---,0.10,VWS V14.01,2013-06-02 21:05:00,
2013-06-02 16:06:00,72.9,63.0,29.91,NW,325,4.0,9.0,71,0.00,,---,0.10,VWS V14.01,2013-06-02 21:06:00,
2013-06-02 16:07:00,72.8,63.3,29.91,NW,325,4.0,9.0,72,0.00,,---,0.10,VWS V14.01,2013-06-02 21:07:00,
2013-06-02 16:09:00,72.7,62.8,29.91,West,262,3.0,9.0,71,0.00,,---,0.10,VWS V14.01,2013-06-02 21:09:00,
2013-06-02 16:11:00,72.7,62.4,29.91,NW,308,5.0,9.0,70,0.00,,---,0.10,VWS V14.01,2013-06-02 21:11:00,
2013-06-02 16:12:00,72.6,62.3,29.91,NW,314,3.0,9.0,70,0.00,,---,0.10,VWS V14.01,2013-06-02 21:12:00,
2013-06-02 16:14:00,72.6,62.7,29.91,NW,310,5.0,9.0,71,0.00,,---,0.10,VWS V14.01,2013-06-02 21:14:00,
2013-06-02 16:16:00,72.6,62.7,29.91,NW,325,3.0,9.0,71,0.00,,---,0.10,VWS V14.01,2013-06-02 21:16:00,
2013-06-02 16:18:00,72.6,62.7,29.91,WNW,301,3.0,9.0,71,0.00,,---,0.10,VWS V14.01,2013-06-02 21:18:00,
2013-06-02 16:20:00,72.6,62.7,29.91,West,271,2.0,9.0,71,0.00,,---,0.10,VWS V14.01,2013-06-02 21:20:00,
2013-06-02 16:21:00,72.6,61.9,29.91,NW,306,2.0,9.0,69,0.00,,---,0.10,VWS V14.01,2013-06-02 21:21:00,
2013-06-02 16:23:00,72.5,61.3,29.91,WNW,284,2.0,9.0,68,0.00,,---,0.10,VWS V14.01,2013-06-02 21:23:00,
2013-06-02 16:25:00,72.4,62.1,29.91,WNW,298,2.0,9.0,70,0.00,,---,0.10,VWS V14.01,2013-06-02 21:25:00,
2013-06-02 16:26:00,72.4,61.7,29.91,NW,325,3.0,9.0,69,0.00,,---,0.10,VWS V14.01,2013-06-02 21:26:00,
2013-06-02 16:27:00,72.4,62.1,29.91,NW,325,2.0,2.0,70,0.00,,---,0.10,VWS V14.01,2013-06-02 21:27:00,
2013-06-02 16:28:00,72.3,62.0,29.91,NW,325,1.0,4.0,70,0.00,,---,0.10,VWS V14.01,2013-06-02 21:28:00,
2013-06-02 16:30:00,72.2,61.5,29.91,NW,309,3.0,4.0,69,0.00,,---,0.10,VWS V14.01,2013-06-02 21:30:00,
2013-06-02 16:31:00,72.2,61.1,29.91,NW,318,4.0,6.0,68,0.00,,---,0.10,VWS V14.01,2013-06-02 21:31:00,
2013-06-02 16:32:00,72.2,61.5,29.91,NNW,330,6.0,8.0,69,0.00,,---,0.10,VWS V14.01,2013-06-02 21:32:00,
2013-06-02 16:33:00,72.1,61.8,29.90,NW,310,5.0,9.0,70,0.00,,---,0.10,VWS V14.01,2013-06-02 21:33:00,
2013-06-02 16:36:00,72.1,61.8,29.91,WNW,287,2.0,9.0,70,0.00,,---,0.10,VWS V14.01,2013-06-02 21:36:00,
2013-06-02 16:37:00,72.0,62.1,29.90,WNW,289,1.0,9.0,71,0.00,,---,0.10,VWS V14.01,2013-06-02 21:37:00,
2013-06-02 16:38:00,72.0,62.1,29.91,WNW,291,4.0,9.0,71,0.00,,---,0.10,VWS V14.01,2013-06-02 21:38:00,
2013-06-02 16:41:00,71.9,61.6,29.91,NW,312,3.0,9.0,70,0.00,,---,0.10,VWS V14.01,2013-06-02 21:41:00,
2013-06-02 16:42:00,71.8,61.9,29.91,NW,310,1.0,9.0,71,0.00,,---,0.10,VWS V14.01,2013-06-02 21:42:00,
2013-06-02 16:43:00,71.8,61.9,29.91,WSW,258,4.0,9.0,71,0.00,,---,0.10,VWS V14.01,2013-06-02 21:43:00,
2013-06-02 16:46:00,71.7,61.8,29.90,NW,325,1.0,9.0,71,0.00,,---,0.10,VWS V14.01,2013-06-02 21:46:00,
2013-06-02 16:47:00,71.7,61.8,29.90,NW,325,0.0,9.0,71,0.00,,---,0.10,VWS V14.01,2013-06-02 21:47:00,
2013-06-02 16:49:00,71.7,62.2,29.90,NNW,335,3.0,9.0,72,0.00,,---,0.10,VWS V14.01,2013-06-02 21:49:00,
2013-06-02 16:51:00,71.7,62.2,29.90,WNW,301,6.0,9.0,72,0.00,,---,0.10,VWS V14.01,2013-06-02 21:51:00,
2013-06-02 16:52:00,71.7,62.2,29.90,NNW,330,2.0,9.0,72,0.00,,---,0.10,VWS V14.01,2013-06-02 21:52:00,
2013-06-02 16:53:00,71.7,61.8,29.90,NNW,330,2.0,9.0,71,0.00,,---,0.10,VWS V14.01,2013-06-02 21:53:00,
2013-06-02 16:54:00,71.7,61.8,29.90,NNW,330,2.0,9.0,71,0.00,,---,0.10,VWS V14.01,2013-06-02 21:54:00,
2013-06-02 16:57:00,71.8,62.7,29.90,NNE,12,4.0,9.0,73,0.00,,---,0.10,VWS V14.01,2013-06-02 21:57:00,
2013-06-02 16:58:00,71.7,61.8,29.90,North,3,3.0,6.0,71,0.00,,---,0.10,VWS V14.01,2013-06-02 21:58:00,
2013-06-02 16:59:00,71.8,61.9,29.90,North,359,1.0,6.0,71,0.00,,---,0.10,VWS V14.01,2013-06-02 21:59:00,
2013-06-02 17:00:00,71.8,62.7,29.90,NNE,12,4.0,9.0,73,0.00,,---,0.10,VWS V14.01,2013-06-02 22:00:00,
2013-06-02 17:02:00,71.8,62.7,29.90,NW,308,5.0,6.0,73,0.00,,---,0.10,VWS V14.01,2013-06-02 22:02:00,
2013-06-02 17:03:00,71.8,62.3,29.90,NNW,335,3.0,6.0,72,0.00,,---,0.10,VWS V14.01,2013-06-02 22:03:00,
2013-06-02 17:04:00,71.8,62.7,29.90,NNW,335,1.0,6.0,73,0.00,,---,0.10,VWS V14.01,2013-06-02 22:04:00,
2013-06-02 17:07:00,71.9,63.2,29.90,NW,325,2.0,6.0,74,0.00,,---,0.10,VWS V14.01,2013-06-02 22:07:00,
2013-06-02 17:08:00,71.9,62.4,29.90,NW,325,3.0,6.0,72,0.00,,---,0.10,VWS V14.01,2013-06-02 22:08:00,
2013-06-02 17:09:00,72.0,62.5,29.90,WNW,285,5.0,6.0,72,0.00,,---,0.10,VWS V14.01,2013-06-02 22:09:00,
2013-06-02 17:12:00,71.9,62.0,29.90,WNW,290,4.0,6.0,71,0.00,,---,0.10,VWS V14.01,2013-06-02 22:12:00,
2013-06-02 17:13:00,71.9,62.0,29.90,WNW,288,5.0,6.0,71,0.00,,---,0.10,VWS V14.01,2013-06-02 22:13:00,
2013-06-02 17:14:00,71.9,62.0,29.90,WNW,297,3.0,6.0,71,0.00,,---,0.10,VWS V14.01,2013-06-02 22:14:00,
2013-06-02 17:17:00,71.7,61.4,29.90,WNW,285,4.0,7.0,70,0.00,,---,0.10,VWS V14.01,2013-06-02 22:17:00,
2013-06-02 17:18:00,71.7,61.4,29.90,WNW,293,5.0,7.0,70,0.00,,---,0.10,VWS V14.01,2013-06-02 22:18:00,
2013-06-02 17:19:00,71.7,61.4,29.90,WNW,295,7.0,7.0,70,0.00,,---,0.10,VWS V14.01,2013-06-02 22:19:00,
2013-06-02 17:20:00,71.6,61.7,29.90,NNW,330,5.0,7.0,71,0.00,,---,0.10,VWS V14.01,2013-06-02 22:20:00,
2013-06-02 17:23:00,71.6,61.7,29.89,NW,308,3.0,7.0,71,0.00,,---,0.10,VWS V14.01,2013-06-02 22:23:00,
2013-06-02 17:24:00,71.6,62.1,29.89,NW,313,4.0,7.0,72,0.00,,---,0.10,VWS V14.01,2013-06-02 22:24:00,
2013-06-02 17:25:00,71.6,61.7,29.89,NW,308,3.0,7.0,71,0.00,,---,0.10,VWS V14.01,2013-06-02 22:25:00,
2013-06-02 17:28:00,71.6,61.3,29.89,WNW,291,4.0,8.0,70,0.00,,---,0.10,VWS V14.01,2013-06-02 22:28:00,
2013-06-02 17:29:00,71.6,61.3,29.89,WNW,293,2.0,8.0,70,0.00,,---,0.10,VWS V14.01,2013-06-02 22:29:00,
2013-06-02 17:30:00,71.6,62.1,29.89,WNW,297,0.0,8.0,72,0.00,,---,0.10,VWS V14.01,2013-06-02 22:30:00,
2013-06-02 17:33:00,72.1,62.2,29.89,NNW,335,1.0,8.0,71,0.00,,---,0.10,VWS V14.01,2013-06-02 22:33:00,
2013-06-02 17:34:00,72.3,62.0,29.89,North,360,7.0,8.0,70,0.00,,---,0.10,VWS V14.01,2013-06-02 22:34:00,
2013-06-02 17:35:00,72.4,62.1,29.89,NW,316,8.0,10.0,70,0.00,,---,0.10,VWS V14.01,2013-06-02 22:35:00,
2013-06-02 17:36:00,72.4,62.1,29.89,NNW,335,5.0,10.0,70,0.00,,---,0.10,VWS V14.01,2013-06-02 22:36:00,
2013-06-02 17:38:00,72.5,61.8,29.89,WNW,287,4.0,10.0,69,0.00,,---,0.10,VWS V14.01,2013-06-02 22:38:00,
2013-06-02 17:39:00,72.5,61.8,29.89,WNW,291,11.0,11.0,69,0.00,,---,0.10,VWS V14.01,2013-06-02 22:39:00,
2013-06-02 17:40:00,72.4,61.7,29.89,West,269,6.0,11.0,69,0.00,,---,0.10,VWS V14.01,2013-06-02 22:40:00,
2013-06-02 17:41:00,72.4,61.7,29.89,NW,325,3.0,11.0,69,0.00,,---,0.10,VWS V14.01,2013-06-02 22:41:00,
2013-06-02 17:43:00,72.3,62.4,29.89,WNW,291,5.0,11.0,71,0.00,,---,0.10,VWS V14.01,2013-06-02 22:43:00,
2013-06-02 17:44:00,72.3,62.4,29.89,NW,305,4.0,11.0,71,0.00,,---,0.10,VWS V14.01,2013-06-02 22:44:00,
2013-06-02 17:45:00,72.3,62.4,29.89,West,265,3.0,11.0,71,0.00,,---,0.10,VWS V14.01,2013-06-02 22:45:00,
2013-06-02 17:46:00,72.3,62.4,29.89,NW,318,5.0,11.0,71,0.00,,---,0.10,VWS V14.01,2013-06-02 22:46:00,
2013-06-02 17:49:00,72.4,62.1,29.89,West,266,4.0,11.0,70,0.00,,---,0.10,VWS V14.01,2013-06-02 22:49:00,
2013-06-02 17:51:00,72.4,62.1,29.89,NNW,330,8.0,11.0,70,0.00,,---,0.10,VWS V14.01,2013-06-02 22:51:00,
2013-06-02 17:52:00,72.4,62.5,29.89,WNW,297,4.0,11.0,71,0.00,,---,0.10,VWS V14.01,2013-06-02 22:52:00,
2013-06-02 17:54:00,72.3,62.4,29.89,NW,320,5.0,11.0,71,0.00,,---,0.10,VWS V14.01,2013-06-02 22:54:00,
2013-06-02 17:55:00,72.3,62.4,29.89,NNW,341,4.0,11.0,71,0.00,,---,0.10,VWS V14.01,2013-06-02 22:55:00,
2013-06-02 17:56:00,72.2,62.3,29.89,NW,325,4.0,11.0,71,0.00,,---,0.10,VWS V14.01,2013-06-02 22:56:00,
2013-06-02 17:57:00,72.2,62.3,29.89,NNW,345,3.0,4.0,71,0.00,,---,0.10,VWS V14.01,2013-06-02 22:57:00,
2013-06-02 17:59:00,72.1,62.2,29.90,WNW,293,5.0,8.0,71,0.00,,---,0.10,VWS V14.01,2013-06-02 22:59:00,
2013-06-02 18:00:00,72.1,62.2,29.90,NW,308,4.0,8.0,71,0.00,,---,0.10,VWS V14.01,2013-06-02 23:00:00,
2013-06-02 18:01:00,72.0,62.1,29.89,NW,315,6.0,11.0,71,0.00,,---,0.10,VWS V14.01,2013-06-02 23:01:00,
2013-06-02 18:02:00,71.9,62.4,29.89,NW,318,5.0,11.0,72,0.00,,---,0.10,VWS V14.01,2013-06-02 23:02:00,
2013-06-02 18:04:00,71.7,62.2,29.89,WNW,301,4.0,11.0,72,0.00,,---,0.10,VWS V14.01,2013-06-02 23:04:00,
2013-06-02 18:05:00,71.7,62.2,29.90,WNW,300,5.0,11.0,72,0.00,,---,0.10,VWS V14.01,2013-06-02 23:05:00,
2013-06-02 18:06:00,71.6,61.7,29.90,NW,311,5.0,11.0,71,0.00,,---,0.10,VWS V14.01,2013-06-02 23:06:00,
2013-06-02 18:08:00,71.5,61.6,29.89,WNW,285,5.0,11.0,71,0.00,,---,0.10,VWS V14.01,2013-06-02 23:08:00,
2013-06-02 18:09:00,71.4,61.5,29.89,NW,325,6.0,11.0,71,0.00,,---,0.10,VWS V14.01,2013-06-02 23:09:00,
2013-06-02 18:10:00,71.4,61.5,29.89,NW,325,2.0,11.0,71,0.00,,---,0.10,VWS V14.01,2013-06-02 23:10:00,
2013-06-02 18:11:00,71.3,61.4,29.89,NW,307,2.0,11.0,71,0.00,,---,0.10,VWS V14.01,2013-06-02 23:11:00,
2013-06-02 18:12:00,71.3,61.4,29.89,WNW,301,3.0,11.0,71,0.00,,---,0.10,VWS V14.01,2013-06-02 23:12:00,
2013-06-02 18:13:00,71.3,61.8,29.89,West,264,3.0,11.0,72,0.00,,---,0.10,VWS V14.01,2013-06-02 23:13:00,
2013-06-02 18:14:00,71.2,62.1,29.89,WNW,283,1.0,11.0,73,0.00,,---,0.10,VWS V14.01,2013-06-02 23:14:00,
2013-06-02 18:15:00,71.2,62.1,29.89,NW,321,4.0,11.0,73,0.00,,---,0.10,VWS V14.01,2013-06-02 23:15:00,
2013-06-02 18:16:00,71.2,61.7,29.89,WNW,291,4.0,11.0,72,0.00,,---,0.10,VWS V14.01,2013-06-02 23:16:00,
2013-06-02 18:17:00,71.2,61.7,29.89,WNW,297,4.0,11.0,72,0.00,,---,0.10,VWS V14.01,2013-06-02 23:17:00,
2013-06-02 18:18:00,71.1,62.0,29.89,WNW,294,5.0,11.0,73,0.00,,---,0.10,VWS V14.01,2013-06-02 23:18:00,
2013-06-02 18:20:00,71.0,61.5,29.89,NW,325,6.0,11.0,72,0.00,,---,0.10,VWS V14.01,2013-06-02 23:20:00,
2013-06-02 18:21:00,70.9,61.4,29.89,NW,311,3.0,11.0,72,0.00,,---,0.10,VWS V14.01,2013-06-02 23:21:00,
2013-06-02 18:22:00,70.8,61.3,29.89,NW,311,0.0,11.0,72,0.00,,---,0.10,VWS V14.01,2013-06-02 23:22:00,
2013-06-02 18:23:00,70.7,61.6,29.89,NNW,335,5.0,11.0,73,0.00,,---,0.10,VWS V14.01,2013-06-02 23:23:00,
2013-06-02 18:25:00,70.6,61.9,29.89,WNW,288,5.0,11.0,74,0.00,,---,0.10,VWS V14.01,2013-06-02 23:25:00,
2013-06-02 18:26:00,70.6,61.9,29.89,WNW,283,3.0,11.0,74,0.00,,---,0.10,VWS V14.01,2013-06-02 23:26:00,
2013-06-02 18:27:00,70.5,61.4,29.89,WNW,299,1.0,11.0,73,0.00,,---,0.10,VWS V14.01,2013-06-02 23:27:00,
2013-06-02 18:30:00,70.4,61.7,29.89,NW,315,2.0,4.0,74,0.00,,---,0.10,VWS V14.01,2013-06-02 23:30:00,
2013-06-02 18:31:00,70.4,62.1,29.89,NW,316,2.0,4.0,75,0.00,,---,0.10,VWS V14.01,2013-06-02 23:31:00,
2013-06-02 18:32:00,70.3,62.0,29.89,NW,321,0.0,4.0,75,0.00,,---,0.10,VWS V14.01,2013-06-02 23:32:00,
2013-06-02 18:33:00,70.3,61.6,29.89,West,260,4.0,5.0,74,0.00,,---,0.10,VWS V14.01,2013-06-02 23:33:00,
2013-06-02 18:35:00,70.2,61.2,29.90,WNW,293,3.0,9.0,73,0.00,,---,0.10,VWS V14.01,2013-06-02 23:35:00,
2013-06-02 18:36:00,70.2,61.2,29.89,NW,310,4.0,9.0,73,0.00,,---,0.10,VWS V14.01,2013-06-02 23:36:00,
2013-06-02 18:37:00,70.1,61.4,29.89,NW,325,2.0,9.0,74,0.00,,---,0.10,VWS V14.01,2013-06-02 23:37:00,
2013-06-02 18:39:00,70.1,61.4,29.90,NNW,339,4.0,9.0,74,0.00,,---,0.10,VWS V14.01,2013-06-02 23:39:00,
2013-06-02 18:41:00,70.0,61.3,29.90,NW,318,3.0,9.0,74,0.00,,---,0.10,VWS V14.01,2013-06-02 23:41:00,
2013-06-02 18:43:00,70.0,61.7,29.90,NW,308,4.0,9.0,75,0.00,,---,0.10,VWS V14.01,2013-06-02 23:43:00,
2013-06-02 18:44:00,70.0,61.3,29.90,NW,313,2.0,9.0,74,0.00,,---,0.10,VWS V14.01,2013-06-02 23:44:00,
2013-06-02 18:46:00,69.9,61.2,29.90,NW,316,7.0,9.0,74,0.00,,---,0.10,VWS V14.01,2013-06-02 23:46:00,
2013-06-02 18:48:00,69.9,61.2,29.90,North,349,2.0,9.0,74,0.00,,---,0.10,VWS V14.01,2013-06-02 23:48:00,
2013-06-02 18:49:00,69.9,61.6,29.90,WNW,301,2.0,9.0,75,0.00,,---,0.10,VWS V14.01,2013-06-02 23:49:00,
2013-06-02 18:51:00,69.8,61.2,29.90,NNE,12,3.0,9.0,74,0.00,,---,0.10,VWS V14.01,2013-06-02 23:51:00,
2013-06-02 18:52:00,69.8,61.2,29.90,NW,320,3.0,9.0,74,0.00,,---,0.10,VWS V14.01,2013-06-02 23:52:00,
2013-06-02 18:53:00,69.8,61.2,29.90,WNW,299,6.0,9.0,74,0.00,,---,0.10,VWS V14.01,2013-06-02 23:53:00,
2013-06-02 18:55:00,69.7,61.0,29.90,NW,325,2.0,9.0,74,0.00,,---,0.10,VWS V14.01,2013-06-02 23:55:00,
2013-06-02 18:56:00,69.7,61.4,29.90,NW,312,3.0,9.0,75,0.00,,---,0.10,VWS V14.01,2013-06-02 23:56:00,
2013-06-02 18:57:00,69.7,61.4,29.90,NW,308,3.0,4.0,75,0.00,,---,0.10,VWS V14.01,2013-06-02 23:57:00,
2013-06-02 18:58:00,69.7,61.4,29.90,NW,308,2.0,4.0,75,0.00,,---,0.10,VWS V14.01,2013-06-02 23:58:00,
2013-06-02 19:00:00,72.2,62.3,29.89,North,353,4.0,11.0,71,0.00,,---,0.10,VWS V14.01,2013-06-03 00:00:00,
2013-06-02 19:01:00,69.5,61.2,29.90,NW,308,5.0,7.0,75,0.00,,---,0.10,VWS V14.01,2013-06-03 00:01:00,
2013-06-02 19:02:00,69.5,60.9,29.90,NW,319,4.0,7.0,74,0.00,,---,0.10,VWS V14.01,2013-06-03 00:02:00,
2013-06-02 19:03:00,69.5,61.2,29.90,NW,325,3.0,7.0,75,0.00,,---,0.10,VWS V14.01,2013-06-03 00:03:00,
2013-06-02 19:04:00,69.5,61.2,29.90,NW,325,2.0,7.0,75,0.00,,---,0.10,VWS V14.01,2013-06-03 00:04:00,
2013-06-02 19:06:00,69.4,61.5,29.90,NW,325,2.0,7.0,76,0.00,,---,0.10,VWS V14.01,2013-06-03 00:06:00,
2013-06-02 19:07:00,69.4,61.5,29.90,NW,325,2.0,7.0,76,0.00,,---,0.10,VWS V14.01,2013-06-03 00:07:00,
2013-06-02 19:08:00,69.4,61.5,29.90,NW,325,2.0,7.0,76,0.00,,---,0.10,VWS V14.01,2013-06-03 00:08:00,
2013-06-02 19:10:00,69.3,61.4,29.90,NW,319,3.0,7.0,76,0.00,,---,0.10,VWS V14.01,2013-06-03 00:10:00,
2013-06-02 19:11:00,69.3,61.4,29.90,NW,319,3.0,7.0,76,0.00,,---,0.10,VWS V14.01,2013-06-03 00:11:00,
2013-06-02 19:12:00,69.3,61.4,29.90,NW,319,2.0,7.0,76,0.00,,---,0.10,VWS V14.01,2013-06-03 00:12:00,
2013-06-02 19:13:00,69.2,61.3,29.90,NW,318,3.0,7.0,76,0.00,,---,0.10,VWS V14.01,2013-06-03 00:13:00,
2013-06-02 19:14:00,69.3,61.4,29.90,NW,318,3.0,7.0,76,0.00,,---,0.10,VWS V14.01,2013-06-03 00:14:00,
2013-06-02 19:15:00,69.2,61.3,29.90,NW,318,3.0,7.0,76,0.00,,---,0.10,VWS V14.01,2013-06-03 00:15:00,
2013-06-02 19:16:00,69.2,61.3,29.90,NW,314,3.0,7.0,76,0.00,,---,0.10,VWS V14.01,2013-06-03 00:16:00,
2013-06-02 19:18:00,69.2,61.7,29.90,NW,314,2.0,7.0,77,0.00,,---,0.10,VWS V14.01,2013-06-03 00:18:00,
2013-06-02 19:20:00,69.1,61.6,29.90,NW,314,2.0,7.0,77,0.00,,---,0.10,VWS V14.01,2013-06-03 00:20:00,
2013-06-02 19:21:00,69.1,61.6,29.90,NW,314,2.0,7.0,77,0.00,,---,0.10,VWS V14.01,2013-06-03 00:21:00,
2013-06-02 19:23:00,69.0,61.5,29.90,NW,315,1.0,7.0,77,0.00,,---,0.10,VWS V14.01,2013-06-03 00:23:00,
2013-06-02 19:26:00,68.9,61.4,29.90,WNW,284,1.0,7.0,77,0.00,,---,0.10,VWS V14.01,2013-06-03 00:26:00,
2013-06-02 19:27:00,68.9,61.4,29.90,West,268,3.0,4.0,77,0.00,,---,0.10,VWS V14.01,2013-06-03 00:27:00,
2013-06-02 19:28:00,68.9,61.4,29.90,NNW,342,3.0,4.0,77,0.00,,---,0.10,VWS V14.01,2013-06-03 00:28:00,
2013-06-02 19:30:00,68.9,61.4,29.90,West,268,3.0,7.0,77,0.00,,---,0.10,VWS V14.01,2013-06-03 00:30:00,
2013-06-02 19:31:00,68.8,61.3,29.91,North,351,1.0,4.0,77,0.00,,---,0.10,VWS V14.01,2013-06-03 00:31:00,
2013-06-02 19:32:00,68.8,61.3,29.91,NNW,339,2.0,4.0,77,0.00,,---,0.10,VWS V14.01,2013-06-03 00:32:00,
2013-06-02 19:33:00,68.8,61.7,29.91,NW,304,2.0,4.0,78,0.00,,---,0.10,VWS V14.01,2013-06-03 00:33:00,
2013-06-02 19:34:00,68.7,61.6,29.91,NNW,343,3.0,4.0,78,0.00,,---,0.10,VWS V14.01,2013-06-03 00:34:00,
2013-06-02 19:36:00,68.7,61.6,29.91,NW,304,3.0,4.0,78,0.00,,---,0.10,VWS V14.01,2013-06-03 00:36:00,
2013-06-02 19:37:00,68.7,61.6,29.91,NW,304,3.0,4.0,78,0.00,,---,0.10,VWS V14.01,2013-06-03 00:37:00,
2013-06-02 19:38:00,68.7,61.6,29.91,NW,306,2.0,4.0,78,0.00,,---,0.10,VWS V14.01,2013-06-03 00:38:00,
2013-06-02 19:40:00,68.6,61.5,29.91,NW,308,4.0,6.0,78,0.00,,---,0.10,VWS V14.01,2013-06-03 00:40:00,
2013-06-02 19:41:00,68.6,61.5,29.91,NW,307,4.0,6.0,78,0.00,,---,0.10,VWS V14.01,2013-06-03 00:41:00,
2013-06-02 19:42:00,68.6,61.5,29.91,NNW,344,2.0,6.0,78,0.00,,---,0.10,VWS V14.01,2013-06-03 00:42:00,
2013-06-02 19:44:00,68.6,61.5,29.91,NW,321,4.0,6.0,78,0.00,,---,0.10,VWS V14.01,2013-06-03 00:44:00,
2013-06-02 19:45:00,68.6,61.5,29.91,WNW,298,4.0,6.0,78,0.00,,---,0.10,VWS V14.01,2013-06-03 00:45:00,
2013-06-02 19:46:00,68.5,61.4,29.91,NW,318,2.0,6.0,78,0.00,,---,0.10,VWS V14.01,2013-06-03 00:46:00,
2013-06-02 19:48:00,68.5,61.4,29.91,NW,325,3.0,6.0,78,0.00,,---,0.10,VWS V14.01,2013-06-03 00:48:00,
2013-06-02 19:49:00,68.4,61.3,29.91,NW,325,5.0,6.0,78,0.00,,---,0.10,VWS V14.01,2013-06-03 00:49:00,
2013-06-02 19:50:00,68.4,61.3,29.91,NNW,335,3.0,6.0,78,0.00,,---,0.10,VWS V14.01,2013-06-03 00:50:00,
2013-06-02 19:51:00,68.4,61.3,29.91,NW,325,2.0,6.0,78,0.00,,---,0.10,VWS V14.01,2013-06-03 00:51:00,
2013-06-02 19:53:00,68.3,61.2,29.91,WNW,284,3.0,6.0,78,0.00,,---,0.10,VWS V14.01,2013-06-03 00:53:00,
2013-06-02 19:54:00,68.3,61.2,29.91,WNW,297,2.0,6.0,78,0.00,,---,0.10,VWS V14.01,2013-06-03 00:54:00,
2013-06-02 19:55:00,68.3,61.2,29.91,WNW,297,2.0,6.0,78,0.00,,---,0.10,VWS V14.01,2013-06-03 00:55:00,
2013-06-02 19:56:00,68.2,61.1,29.91,NNW,335,3.0,6.0,78,0.00,,---,0.10,VWS V14.01,2013-06-03 00:56:00,
2013-06-02 19:58:00,68.1,60.6,29.91,WNW,283,9.0,9.0,77,0.00,,---,0.10,VWS V14.01,2013-06-03 00:58:00,
2013-06-02 20:00:00,68.1,60.6,29.91,WNW,299,3.0,10.0,77,0.00,,---,0.10,VWS V14.01,2013-06-03 01:00:00,
2013-06-02 20:02:00,68.0,60.5,29.91,WNW,287,9.0,10.0,77,0.00,,---,0.10,VWS V14.01,2013-06-03 01:02:00,
2013-06-02 20:04:00,67.9,60.4,29.91,NW,312,3.0,10.0,77,0.00,,---,0.10,VWS V14.01,2013-06-03 01:04:00,
2013-06-02 20:05:00,67.9,60.4,29.91,NW,314,3.0,10.0,77,0.00,,---,0.10,VWS V14.01,2013-06-03 01:05:00,
2013-06-02 20:06:00,67.9,60.4,29.91,NW,318,5.0,10.0,77,0.00,,---,0.10,VWS V14.01,2013-06-03 01:06:00,
2013-06-02 20:08:00,67.8,60.3,29.92,NW,307,2.0,10.0,77,0.00,,---,0.10,VWS V14.01,2013-06-03 01:08:00,
2013-06-02 20:09:00,67.8,60.3,29.92,NW,307,1.0,10.0,77,0.00,,---,0.10,VWS V14.01,2013-06-03 01:09:00,
2013-06-02 20:10:00,67.7,60.6,29.92,NW,325,6.0,10.0,78,0.00,,---,0.10,VWS V14.01,2013-06-03 01:10:00,
2013-06-02 20:12:00,67.7,60.6,29.92,WNW,290,6.0,10.0,78,0.00,,---,0.10,VWS V14.01,2013-06-03 01:12:00,
2013-06-02 20:13:00,67.7,60.2,29.92,West,271,2.0,10.0,77,0.00,,---,0.10,VWS V14.01,2013-06-03 01:13:00,
2013-06-02 20:14:00,67.7,60.2,29.92,West,281,6.0,10.0,77,0.00,,---,0.10,VWS V14.01,2013-06-03 01:14:00,
2013-06-02 20:15:00,67.6,60.5,29.92,NW,325,3.0,10.0,78,0.00,,---,0.10,VWS V14.01,2013-06-03 01:15:00,
2013-06-02 20:17:00,67.6,60.5,29.92,NW,317,5.0,10.0,78,0.00,,---,0.10,VWS V14.01,2013-06-03 01:17:00,
2013-06-02 20:18:00,67.5,60.4,29.92,WNW,301,2.0,10.0,78,0.00,,---,0.10,VWS V14.01,2013-06-03 01:18:00,
2013-06-02 20:19:00,67.5,60.4,29.92,NW,316,2.0,10.0,78,0.00,,---,0.10,VWS V14.01,2013-06-03 01:19:00,
2013-06-02 20:20:00,67.5,60.4,29.92,NW,313,3.0,10.0,78,0.00,,---,0.10,VWS V14.01,2013-06-03 01:20:00,
2013-06-02 20:21:00,67.4,60.3,29.92,NW,312,3.0,10.0,78,0.00,,---,0.10,VWS V14.01,2013-06-03 01:21:00,
2013-06-02 20:22:00,67.4,60.3,29.92,NW,309,2.0,10.0,78,0.00,,---,0.10,VWS V14.01,2013-06-03 01:22:00,
2013-06-02 20:23:00,67.4,60.3,29.92,NW,309,1.0,10.0,78,0.00,,---,0.10,VWS V14.01,2013-06-03 01:23:00,
2013-06-02 20:24:00,67.4,60.3,29.92,West,272,4.0,10.0,78,0.00,,---,0.10,VWS V14.01,2013-06-03 01:24:00,
2013-06-02 20:25:00,67.3,60.2,29.92,WNW,290,3.0,10.0,78,0.00,,---,0.10,VWS V14.01,2013-06-03 01:25:00,
2013-06-02 20:26:00,67.3,60.2,29.92,WNW,292,2.0,10.0,78,0.00,,---,0.10,VWS V14.01,2013-06-03 01:26:00,
2013-06-02 20:27:00,67.3,60.2,29.92,NW,310,2.0,4.0,78,0.00,,---,0.10,VWS V14.01,2013-06-03 01:27:00,
2013-06-02 20:28:00,67.2,60.1,29.92,WNW,285,4.0,5.0,78,0.00,,---,0.10,VWS V14.01,2013-06-03 01:28:00,
2013-06-02 20:30:00,67.2,60.1,29.92,NW,306,2.0,5.0,78,0.00,,---,0.10,VWS V14.01,2013-06-03 01:30:00,
2013-06-02 20:31:00,67.2,60.1,29.92,NNW,335,5.0,5.0,78,0.00,,---,0.10,VWS V14.01,2013-06-03 01:31:00,
2013-06-02 20:32:00,67.2,60.5,29.92,NNW,330,4.0,5.0,79,0.00,,---,0.10,VWS V14.01,2013-06-03 01:32:00,
2013-06-02 20:33:00,67.1,60.4,29.92,WNW,284,4.0,5.0,79,0.00,,---,0.10,VWS V14.01,2013-06-03 01:33:00,
2013-06-02 20:35:00,67.1,60.4,29.92,NW,306,3.0,6.0,79,0.00,,---,0.10,VWS V14.01,2013-06-03 01:35:00,
2013-06-02 20:36:00,67.0,60.6,29.92,NW,313,3.0,6.0,80,0.00,,---,0.10,VWS V14.01,2013-06-03 01:36:00,
2013-06-02 20:37:00,67.0,60.6,29.92,WNW,294,4.0,6.0,80,0.00,,---,0.10,VWS V14.01,2013-06-03 01:37:00,
2013-06-02 20:38:00,67.0,60.6,29.92,WNW,288,3.0,6.0,80,0.00,,---,0.10,VWS V14.01,2013-06-03 01:38:00,
2013-06-02 20:40:00,66.9,60.5,29.92,WNW,287,3.0,6.0,80,0.00,,---,0.10,VWS V14.01,2013-06-03 01:40:00,
2013-06-02 20:41:00,66.9,60.5,29.92,WNW,289,4.0,7.0,80,0.00,,---,0.10,VWS V14.01,2013-06-03 01:41:00,
2013-06-02 20:42:00,66.8,60.4,29.92,WNW,296,3.0,7.0,80,0.00,,---,0.10,VWS V14.01,2013-06-03 01:42:00,
2013-06-02 20:43:00,66.8,60.4,29.92,WNW,297,5.0,7.0,80,0.00,,---,0.10,VWS V14.01,2013-06-03 01:43:00,
2013-06-02 20:45:00,66.7,60.0,29.92,WNW,303,4.0,7.0,79,0.00,,---,0.10,VWS V14.01,2013-06-03 01:45:00,
2013-06-02 20:46:00,66.7,60.0,29.92,WNW,301,3.0,7.0,79,0.00,,---,0.10,VWS V14.01,2013-06-03 01:46:00,
2013-06-02 20:47:00,66.6,59.9,29.92,NW,308,5.0,7.0,79,0.00,,---,0.10,VWS V14.01,2013-06-03 01:47:00,
2013-06-02 20:48:00,66.6,59.9,29.92,WNW,299,6.0,8.0,79,0.00,,---,0.10,VWS V14.01,2013-06-03 01:48:00,
2013-06-02 20:50:00,66.6,59.9,29.92,NW,304,3.0,9.0,79,0.00,,---,0.10,VWS V14.01,2013-06-03 01:50:00,
2013-06-02 20:51:00,66.5,59.8,29.92,NW,310,2.0,9.0,79,0.00,,---,0.10,VWS V14.01,2013-06-03 01:51:00,
2013-06-02 20:52:00,66.5,59.8,29.92,NW,307,7.0,9.0,79,0.00,,---,0.10,VWS V14.01,2013-06-03 01:52:00,
2013-06-02 20:54:00,66.5,59.8,29.92,NW,307,2.0,9.0,79,0.00,,---,0.10,VWS V14.01,2013-06-03 01:54:00,
2013-06-02 20:56:00,66.5,59.8,29.92,NW,325,3.0,9.0,79,0.00,,---,0.10,VWS V14.01,2013-06-03 01:56:00,
2013-06-02 20:57:00,66.4,59.7,29.92,NW,314,5.0,9.0,79,0.00,,---,0.10,VWS V14.01,2013-06-03 01:57:00,
2013-06-02 20:58:00,66.4,59.7,29.92,NW,318,7.0,8.0,79,0.00,,---,0.10,VWS V14.01,2013-06-03 01:58:00,
2013-06-02 20:59:00,66.4,59.7,29.93,NW,304,4.0,8.0,79,0.00,,---,0.10,VWS V14.01,2013-06-03 01:59:00,
2013-06-02 21:00:00,66.4,59.7,29.92,NW,314,5.0,9.0,79,0.00,,---,0.10,VWS V14.01,2013-06-03 02:00:00,
2013-06-02 21:01:00,66.3,59.6,29.92,WNW,291,4.0,9.0,79,0.00,,---,0.10,VWS V14.01,2013-06-03 02:01:00,
2013-06-02 21:02:00,66.3,59.6,29.92,WNW,303,5.0,9.0,79,0.00,,---,0.10,VWS V14.01,2013-06-03 02:02:00,
2013-06-02 21:03:00,66.3,60.0,29.93,WNW,286,5.0,9.0,80,0.00,,---,0.10,VWS V14.01,2013-06-03 02:03:00,
2013-06-02 21:04:00,66.2,59.9,29.93,WNW,291,4.0,9.0,80,0.00,,---,0.10,VWS V14.01,2013-06-03 02:04:00,
2013-06-02 21:06:00,66.2,59.9,29.93,WNW,296,3.0,9.0,80,0.00,,---,0.10,VWS V14.01,2013-06-03 02:06:00,
2013-06-02 21:07:00,66.2,59.9,29.93,WNW,296,3.0,9.0,80,0.00,,---,0.10,VWS V14.01,2013-06-03 02:07:00,
2013-06-02 21:08:00,66.2,59.9,29.93,WNW,303,4.0,9.0,80,0.00,,---,0.10,VWS V14.01,2013-06-03 02:08:00,
2013-06-02 21:09:00,66.1,59.8,29.93,NW,313,5.0,9.0,80,0.00,,---,0.10,VWS V14.01,2013-06-03 02:09:00,
2013-06-02 21:11:00,66.1,59.8,29.93,WNW,289,6.0,9.0,80,0.00,,---,0.10,VWS V14.01,2013-06-03 02:11:00,
2013-06-02 21:12:00,66.0,59.7,29.93,WNW,291,3.0,9.0,80,0.00,,---,0.10,VWS V14.01,2013-06-03 02:12:00,
2013-06-02 21:13:00,66.0,59.7,29.93,WNW,297,5.0,9.0,80,0.00,,---,0.10,VWS V14.01,2013-06-03 02:13:00,
2013-06-02 21:14:00,66.0,59.3,29.93,WNW,299,3.0,9.0,79,0.00,,---,0.10,VWS V14.01,2013-06-03 02:14:00,
2013-06-02 21:16:00,66.0,59.7,29.93,NW,317,3.0,9.0,80,0.00,,---,0.10,VWS V14.01,2013-06-03 02:16:00,
2013-06-02 21:17:00,66.0,59.7,29.93,NW,312,4.0,9.0,80,0.00,,---,0.10,VWS V14.01,2013-06-03 02:17:00,
2013-06-02 21:18:00,65.9,59.6,29.93,WNW,299,4.0,9.0,80,0.00,,---,0.10,VWS V14.01,2013-06-03 02:18:00,
2013-06-02 21:19:00,65.9,59.6,29.93,WNW,303,6.0,9.0,80,0.00,,---,0.10,VWS V14.01,2013-06-03 02:19:00,
2013-06-02 21:20:00,65.9,59.6,29.93,NW,316,5.0,9.0,80,0.00,,---,0.10,VWS V14.01,2013-06-03 02:20:00,
2013-06-02 21:22:00,65.8,59.5,29.93,WNW,288,5.0,9.0,80,0.00,,---,0.10,VWS V14.01,2013-06-03 02:22:00,
2013-06-02 21:23:00,65.8,59.5,29.93,NW,325,3.0,9.0,80,0.00,,---,0.10,VWS V14.01,2013-06-03 02:23:00,
2013-06-02 21:24:00,65.8,59.5,29.93,NW,306,5.0,9.0,80,0.00,,---,0.10,VWS V14.01,2013-06-03 02:24:00,
2013-06-02 21:25:00,65.8,59.5,29.93,WNW,301,5.0,9.0,80,0.00,,---,0.10,VWS V14.01,2013-06-03 02:25:00,
2013-06-02 21:27:00,65.7,59.4,29.93,WNW,287,6.0,6.0,80,0.00,,---,0.10,VWS V14.01,2013-06-03 02:27:00,
2013-06-02 21:29:00,65.7,59.4,29.93,NW,325,6.0,7.0,80,0.00,,---,0.10,VWS V14.01,2013-06-03 02:29:00,
2013-06-02 21:30:00,65.7,59.4,29.93,WNW,298,6.0,9.0,80,0.00,,---,0.10,VWS V14.01,2013-06-03 02:30:00,
2013-06-02 21:31:00,65.7,59.4,29.93,WNW,294,9.0,9.0,80,0.00,,---,0.10,VWS V14.01,2013-06-03 02:31:00,
2013-06-02 21:33:00,65.6,59.6,29.94,NW,312,4.0,9.0,81,0.00,,---,0.10,VWS V14.01,2013-06-03 02:33:00,
2013-06-02 21:34:00,65.6,59.6,29.94,West,268,4.0,9.0,81,0.00,,---,0.10,VWS V14.01,2013-06-03 02:34:00,
2013-06-02 21:35:00,65.6,59.6,29.94,WNW,291,3.0,9.0,81,0.00,,---,0.10,VWS V14.01,2013-06-03 02:35:00,
2013-06-02 21:36:00,65.5,59.2,29.94,West,278,5.0,9.0,80,0.00,,---,0.10,VWS V14.01,2013-06-03 02:36:00,
2013-06-02 21:38:00,65.5,59.2,29.94,West,272,5.0,9.0,80,0.00,,---,0.10,VWS V14.01,2013-06-03 02:38:00,
2013-06-02 21:39:00,65.5,59.2,29.94,West,271,5.0,9.0,80,0.00,,---,0.10,VWS V14.01,2013-06-03 02:39:00,
2013-06-02 21:40:00,65.5,59.2,29.94,NW,305,4.0,9.0,80,0.00,,---,0.10,VWS V14.01,2013-06-03 02:40:00,
2013-06-02 21:42:00,65.4,59.4,29.94,NW,305,3.0,9.0,81,0.00,,---,0.10,VWS V14.01,2013-06-03 02:42:00,
2013-06-02 21:43:00,65.4,59.4,29.94,WNW,289,4.0,9.0,81,0.00,,---,0.10,VWS V14.01,2013-06-03 02:43:00,
2013-06-02 21:44:00,65.4,59.4,29.94,WNW,300,5.0,9.0,81,0.00,,---,0.10,VWS V14.01,2013-06-03 02:44:00,
2013-06-02 21:45:00,65.4,59.4,29.94,WNW,292,3.0,9.0,81,0.00,,---,0.10,VWS V14.01,2013-06-03 02:45:00,
2013-06-02 21:47:00,65.3,59.3,29.94,WNW,299,7.0,9.0,81,0.00,,---,0.10,VWS V14.01,2013-06-03 02:47:00,
2013-06-02 21:49:00,65.3,59.3,29.94,West,272,2.0,9.0,81,0.00,,---,0.10,VWS V14.01,2013-06-03 02:49:00,
2013-06-02 21:51:00,65.3,59.3,29.94,WNW,283,3.0,9.0,81,0.00,,---,0.10,VWS V14.01,2013-06-03 02:51:00,
2013-06-02 21:52:00,65.2,59.2,29.94,WNW,289,5.0,9.0,81,0.00,,---,0.10,VWS V14.01,2013-06-03 02:52:00,
2013-06-02 21:54:00,65.2,59.2,29.94,WNW,284,5.0,9.0,81,0.00,,---,0.10,VWS V14.01,2013-06-03 02:54:00,
2013-06-02 21:55:00,65.2,59.2,29.94,West,275,9.0,9.0,81,0.00,,---,0.10,VWS V14.01,2013-06-03 02:55:00,
2013-06-02 21:57:00,65.2,59.2,29.94,WNW,292,5.0,10.0,81,0.00,,---,0.10,VWS V14.01,2013-06-03 02:57:00,
2013-06-02 21:59:00,65.2,59.2,29.94,NW,310,4.0,6.0,81,0.00,,---,0.10,VWS V14.01,2013-06-03 02:59:00,
2013-06-02 22:00:00,65.2,59.2,29.94,NW,312,3.0,6.0,81,0.00,,---,0.10,VWS V14.01,2013-06-03 03:00:00,
2013-06-02 22:02:00,65.2,59.2,29.95,WNW,288,3.0,6.0,81,0.00,,---,0.10,VWS V14.01,2013-06-03 03:02:00,
2013-06-02 22:04:00,65.1,59.1,29.94,WNW,299,5.0,8.0,81,0.00,,---,0.10,VWS V14.01,2013-06-03 03:04:00,
2013-06-02 22:05:00,65.1,59.1,29.94,NW,325,6.0,8.0,81,0.00,,---,0.10,VWS V14.01,2013-06-03 03:05:00,
2013-06-02 22:07:00,65.1,59.1,29.94,WNW,295,3.0,8.0,81,0.00,,---,0.10,VWS V14.01,2013-06-03 03:07:00,
2013-06-02 22:09:00,65.1,59.1,29.94,WNW,291,5.0,8.0,81,0.00,,---,0.10,VWS V14.01,2013-06-03 03:09:00,
2013-06-02 22:10:00,65.0,59.0,29.94,NW,310,4.0,8.0,81,0.00,,---,0.10,VWS V14.01,2013-06-03 03:10:00,
2013-06-02 22:12:00,65.0,59.0,29.95,NNW,330,5.0,8.0,81,0.00,,---,0.10,VWS V14.01,2013-06-03 03:12:00,
2013-06-02 22:13:00,65.0,59.0,29.95,WNW,296,4.0,8.0,81,0.00,,---,0.10,VWS V14.01,2013-06-03 03:13:00,
2013-06-02 22:15:00,65.0,59.0,29.95,NW,313,4.0,8.0,81,0.00,,---,0.10,VWS V14.01,2013-06-03 03:15:00,
2013-06-02 22:17:00,65.0,59.0,29.95,WNW,289,4.0,9.0,81,0.00,,---,0.10,VWS V14.01,2013-06-03 03:17:00,
2013-06-02 22:18:00,65.0,59.0,29.95,WNW,291,6.0,9.0,81,0.00,,---,0.10,VWS V14.01,2013-06-03 03:18:00,
2013-06-02 22:20:00,65.0,59.0,29.95,WNW,299,7.0,9.0,81,0.00,,---,0.10,VWS V14.01,2013-06-03 03:20:00,
2013-06-02 22:22:00,65.0,59.0,29.95,WNW,303,3.0,9.0,81,0.00,,---,0.10,VWS V14.01,2013-06-03 03:22:00,
2013-06-02 22:24:00,64.9,58.9,29.95,WNW,284,3.0,9.0,81,0.00,,---,0.10,VWS V14.01,2013-06-03 03:24:00,
2013-06-02 22:25:00,64.9,59.3,29.95,WNW,303,6.0,9.0,82,0.00,,---,0.10,VWS V14.01,2013-06-03 03:25:00,
2013-06-02 22:26:00,64.9,58.9,29.95,WNW,287,4.0,9.0,81,0.00,,---,0.10,VWS V14.01,2013-06-03 03:26:00,
2013-06-02 22:28:00,64.9,59.3,29.95,NNW,330,6.0,9.0,82,0.00,,---,0.10,VWS V14.01,2013-06-03 03:28:00,
2013-06-02 22:29:00,64.9,59.3,29.95,WNW,285,7.0,9.0,82,0.00,,---,0.10,VWS V14.01,2013-06-03 03:29:00,
2013-06-02 22:30:00,64.9,59.3,29.95,NW,308,7.0,9.0,82,0.00,,---,0.10,VWS V14.01,2013-06-03 03:30:00,
2013-06-02 22:31:00,64.9,59.3,29.95,NW,308,5.0,9.0,82,0.00,,---,0.10,VWS V14.01,2013-06-03 03:31:00,
2013-06-02 22:33:00,64.8,59.2,29.95,NW,312,4.0,9.0,82,0.00,,---,0.10,VWS V14.01,2013-06-03 03:33:00,
2013-06-02 22:34:00,64.8,59.2,29.95,NW,306,5.0,9.0,82,0.00,,---,0.10,VWS V14.01,2013-06-03 03:34:00,
2013-06-02 22:35:00,64.8,59.2,29.95,WNW,298,6.0,9.0,82,0.00,,---,0.10,VWS V14.01,2013-06-03 03:35:00,
2013-06-02 22:37:00,64.8,59.2,29.95,West,274,6.0,9.0,82,0.00,,---,0.10,VWS V14.01,2013-06-03 03:37:00,
2013-06-02 22:39:00,64.7,59.1,29.95,WNW,290,7.0,9.0,82,0.00,,---,0.10,VWS V14.01,2013-06-03 03:39:00,
2013-06-02 22:40:00,64.7,59.1,29.95,NW,321,3.0,9.0,82,0.00,,---,0.10,VWS V14.01,2013-06-03 03:40:00,
2013-06-02 22:42:00,64.7,59.1,29.95,NW,304,3.0,9.0,82,0.00,,---,0.10,VWS V14.01,2013-06-03 03:42:00,
2013-06-02 22:44:00,64.7,59.1,29.95,NNW,345,4.0,9.0,82,0.00,,---,0.10,VWS V14.01,2013-06-03 03:44:00,
2013-06-02 22:46:00,64.7,59.1,29.95,WNW,287,2.0,9.0,82,0.00,,---,0.10,VWS V14.01,2013-06-03 03:46:00,
2013-06-02 22:47:00,64.7,59.1,29.95,NW,318,5.0,9.0,82,0.00,,---,0.10,VWS V14.01,2013-06-03 03:47:00,
2013-06-02 22:49:00,64.6,59.0,29.95,WNW,300,3.0,9.0,82,0.00,,---,0.10,VWS V14.01,2013-06-03 03:49:00,
2013-06-02 22:52:00,64.5,58.9,29.95,WNW,303,6.0,9.0,82,0.00,,---,0.10,VWS V14.01,2013-06-03 03:52:00,
2013-06-02 22:54:00,64.5,59.2,29.95,NNW,330,3.0,9.0,83,0.00,,---,0.10,VWS V14.01,2013-06-03 03:54:00,
2013-06-02 22:57:00,64.5,59.2,29.95,NW,317,4.0,4.0,83,0.00,,---,0.10,VWS V14.01,2013-06-03 03:57:00,
2013-06-02 22:59:00,64.4,59.1,29.95,NW,316,2.0,5.0,83,0.00,,---,0.10,VWS V14.01,2013-06-03 03:59:00,
2013-06-02 23:00:00,64.4,59.1,29.95,NW,304,3.0,5.0,83,0.00,,---,0.10,VWS V14.01,2013-06-03 04:00:00,
2013-06-02 23:01:00,64.4,59.1,29.95,NW,304,1.0,5.0,83,0.00,,---,0.10,VWS V14.01,2013-06-03 04:01:00,
2013-06-02 23:06:00,64.3,59.0,29.95,WNW,288,3.0,6.0,83,0.00,,---,0.10,VWS V14.01,2013-06-03 04:06:00,
2013-06-02 23:07:00,64.2,58.9,29.95,NW,321,3.0,6.0,83,0.00,,---,0.10,VWS V14.01,2013-06-03 04:07:00,
2013-06-02 23:11:00,64.2,58.9,29.95,North,5,0.0,6.0,83,0.00,,---,0.10,VWS V14.01,2013-06-03 04:11:00,
2013-06-02 23:12:00,64.2,59.3,29.95,North,358,3.0,6.0,84,0.00,,---,0.10,VWS V14.01,2013-06-03 04:12:00,
2013-06-02 23:16:00,64.1,59.2,29.95,NNW,335,2.0,6.0,84,0.00,,---,0.10,VWS V14.01,2013-06-03 04:16:00,
2013-06-02 23:17:00,64.1,58.8,29.95,NNW,335,2.0,6.0,83,0.00,,---,0.10,VWS V14.01,2013-06-03 04:17:00,
2013-06-02 23:18:00,64.1,58.8,29.95,NW,325,2.0,6.0,83,0.00,,---,0.10,VWS V14.01,2013-06-03 04:18:00,
2013-06-02 23:22:00,64.1,59.2,29.95,NW,318,2.0,6.0,84,0.00,,---,0.10,VWS V14.01,2013-06-03 04:22:00,
2013-06-02 23:23:00,64.0,59.1,29.95,West,281,2.0,6.0,84,0.00,,---,0.10,VWS V14.01,2013-06-03 04:23:00,
2013-06-02 23:27:00,64.0,59.1,29.95,West,280,2.0,4.0,84,0.00,,---,0.10,VWS V14.01,2013-06-03 04:27:00,
2013-06-02 23:28:00,64.0,59.1,29.95,WNW,298,2.0,4.0,84,0.00,,---,0.10,VWS V14.01,2013-06-03 04:28:00,
2013-06-02 23:30:00,64.0,59.1,29.95,WNW,285,4.0,6.0,84,0.00,,---,0.10,VWS V14.01,2013-06-03 04:30:00,
2013-06-02 23:32:00,64.0,59.1,29.95,NW,308,0.0,4.0,84,0.00,,---,0.10,VWS V14.01,2013-06-03 04:32:00,
2013-06-02 23:33:00,64.0,59.1,29.95,NW,308,2.0,4.0,84,0.00,,---,0.10,VWS V14.01,2013-06-03 04:33:00,
2013-06-02 23:37:00,63.9,59.0,29.95,NW,308,0.0,4.0,84,0.00,,---,0.10,VWS V14.01,2013-06-03 04:37:00,
2013-06-02 23:38:00,63.9,59.0,29.95,NW,308,3.0,4.0,84,0.00,,---,0.10,VWS V14.01,2013-06-03 04:38:00,
2013-06-02 23:42:00,63.8,58.9,29.95,NW,317,3.0,4.0,84,0.00,,---,0.10,VWS V14.01,2013-06-03 04:42:00,
2013-06-02 23:43:00,63.8,58.9,29.95,NW,316,3.0,4.0,84,0.00,,---,0.10,VWS V14.01,2013-06-03 04:43:00,
2013-06-02 23:44:00,63.8,58.9,29.95,WNW,301,5.0,5.0,84,0.00,,---,0.10,VWS V14.01,2013-06-03 04:44:00,
2013-06-02 23:47:00,63.8,59.2,29.95,NW,308,2.0,5.0,85,0.00,,---,0.10,VWS V14.01,2013-06-03 04:47:00,
2013-06-02 23:48:00,63.7,59.1,29.95,NW,308,3.0,5.0,85,0.00,,---,0.10,VWS V14.01,2013-06-03 04:48:00,
2013-06-02 23:49:00,63.7,59.1,29.95,NW,308,2.0,5.0,85,0.00,,---,0.10,VWS V14.01,2013-06-03 04:49:00,
2013-06-02 23:53:00,63.7,59.1,29.95,NW,325,0.0,5.0,85,0.00,,---,0.10,VWS V14.01,2013-06-03 04:53:00,
2013-06-02 23:54:00,63.6,59.0,29.96,NW,325,1.0,5.0,85,0.00,,---,0.10,VWS V14.01,2013-06-03 04:54:00,
2013-06-02 23:58:00,63.6,59.0,29.95,NW,325,1.0,2.0,85,0.00,,---,0.00,VWS V14.01,2013-06-03 04:58:00,
2013-06-02 23:59:00,63.6,59.0,29.96,NW,325,1.0,2.0,85,0.00,,---,0.00,VWS V14.01,2013-06-03 04:59:00,